Sasaki, Shun (2026): Radiosonde measurements from station Abashiri (2025-12) [dataset]. Japan Meteorological Agency, Tokyo, PANGAEA, https://doi.org/10.1594/PANGAEA.992668
Always quote citation above when using data! You can download the citation in several formats below.
Published: 2026-02-26 • DOI registered: 2026-03-27
Other version:
Sasaki, Shun (2026): BSRN Station-to-archive file for station Abashiri (2025-12) [dataset]. ftp://ftp.bsrn.awi.de/abs/abs1225.dat.gz
Project(s):
Coverage:
Latitude: 44.017800 * Longitude: 144.279700
Date/Time Start: 2025-12-01T00:00:00 * Date/Time End: 2025-12-31T23:59:00
Minimum ALTITUDE: 18 m * Maximum ALTITUDE: 27564 m
Event(s):
ABS (Abashiri) * Latitude: 44.017800 * Longitude: 144.279700 * Date/Time: 2021-03-01T00:00:00 * Elevation: 38.0 m * Station info: Abashiri.pdf * Location: Japan * Method/Device: Monitoring station (MONS) * Comment: BSRN station no: 86; Surface type: asphalt; Topography type: flat, rural; Horizon: doi:10.1594/PANGAEA.947000; Station scientist: SASAKI Shun (rrc-jma@met.kishou.go.jp)
Parameter(s):
| # | Name | Short Name | Unit | Principal Investigator | Method/Device | Comment |
|---|---|---|---|---|---|---|
| 1 | DATE/TIME | Date/Time | Sasaki, Shun | Geocode | ||
| 2 | ALTITUDE | Altitude | m | Sasaki, Shun | Geocode | |
| 3 | Pressure, at given altitude | PPPP | hPa | Sasaki, Shun | Radiosonde, Meisei, iMS | |
| 4 | Temperature, air | TTT | °C | Sasaki, Shun | Radiosonde, Meisei, iMS | |
| 5 | Dew/frost point | TdTdTd | °C | Sasaki, Shun | Radiosonde, Meisei, iMS | |
| 6 | Wind direction | dd | deg | Sasaki, Shun | Radiosonde, Meisei, iMS | |
| 7 | Wind speed | ff | m/s | Sasaki, Shun | Radiosonde, Meisei, iMS |
License:
Status:
Curation Level: Enhanced curation (CurationLevelC)
Size:
25335 data points
Data
| 1 Date/Time | 2 Altitude [m] | 3 PPPP [hPa] | 4 TTT [°C] | 5 TdTdTd [°C] | 6 dd [deg] | 7 ff [m/s] |
|---|---|---|---|---|---|---|
| 2025-12-01T00:00 | 10820 | 222 | -55.8 | |||
| 2025-12-01T00:00 | 10988 | 217 | -56.6 | |||
| 2025-12-01T00:00 | 11018 | 216 | 241 | 60 | ||
| 2025-12-01T00:01 | 11315 | 206 | 245 | 61 | ||
| 2025-12-01T00:01 | 11461 | 201 | -54.1 | |||
| 2025-12-01T00:02 | 11619 | 196 | 253 | 63 | ||
| 2025-12-01T00:02 | 11651 | 195 | -51.0 | |||
| 2025-12-01T00:02 | 11791 | 191 | 254 | 60 | ||
| 2025-12-01T00:02 | 11854 | 189 | -50.0 | |||
| 2025-12-01T00:03 | 12148 | 181 | -50.9 | |||
| 2025-12-01T00:03 | 12230 | 179 | 256 | 60 | ||
| 2025-12-01T00:03 | 12383 | 174 | -51.6 | |||
| 2025-12-01T00:04 | 12632 | 168 | -51.6 | |||
| 2025-12-01T00:04 | 12694 | 166 | 256 | 57 | ||
| 2025-12-01T00:05 | 12997 | 159 | 257 | 55 | ||
| 2025-12-01T00:05 | 13099 | 156 | -52.1 | |||
| 2025-12-01T00:05 | 13254 | 152 | -52.5 | |||
| 2025-12-01T00:06 | 13400 | 149 | 250 | 54 | ||
| 2025-12-01T00:06 | 13617 | 144 | -53.8 | |||
| 2025-12-01T00:07 | 13701 | 142 | 251 | 56 | ||
| 2025-12-01T00:07 | 13826 | 139 | 254 | 58 | ||
| 2025-12-01T00:08 | 14090 | 134 | -53.8 | |||
| 2025-12-01T00:08 | 14248 | 131 | 254 | 56 | ||
| 2025-12-01T00:09 | 14596 | 124 | -56.6 | |||
| 2025-12-01T00:09 | 14662 | 122 | 256 | 54 | ||
| 2025-12-01T00:10 | 15069 | 115 | 254 | 49 | ||
| 2025-12-01T00:10 | 15177 | 113 | -57.3 | |||
| 2025-12-01T00:11 | 15407 | 109 | 254 | 52 | ||
| 2025-12-01T00:11 | 15473 | 108 | -57.5 | |||
| 2025-12-01T00:12 | 15784 | 102 | 254 | 47 | ||
| 2025-12-01T00:12 | 15971 | 99 | -60.6 | |||
| 2025-12-01T00:13 | 16119 | 97 | 248 | 48 | ||
| 2025-12-01T00:14 | 16462 | 92 | -61.3 | |||
| 2025-12-01T00:14 | 16488 | 91 | 247 | 48 | ||
| 2025-12-01T00:15 | 16723 | 88 | 237 | 45 | ||
| 2025-12-01T00:16 | 16970 | 85 | 246 | 51 | ||
| 2025-12-01T00:16 | 17074 | 83 | 247 | 53 | ||
| 2025-12-01T00:17 | 17216 | 81 | 249 | 53 | ||
| 2025-12-01T00:17 | 17224 | 81 | -59.0 | |||
| 2025-12-01T00:17 | 17336 | 80 | -57.8 | |||
| 2025-12-01T00:17 | 17454 | 78 | 248 | 47 | ||
| 2025-12-01T00:18 | 17503 | 78 | -56.7 | |||
| 2025-12-01T00:18 | 17872 | 73 | 266 | 43 | ||
| 2025-12-01T00:19 | 18327 | 68 | 265 | 38 | ||
| 2025-12-01T00:20 | 18361 | 68 | -60.7 | |||
| 2025-12-01T00:21 | 18757 | 64 | 269 | 39 | ||
| 2025-12-01T00:21 | 18845 | 63 | -63.5 | |||
| 2025-12-01T00:21 | 19123 | 60 | -64.0 | |||
| 2025-12-01T00:22 | 19145 | 60 | 266 | 36 | ||
| 2025-12-01T00:22 | 19374 | 58 | -64.6 | |||
| 2025-12-01T00:23 | 19555 | 56 | 255 | 42 | ||
| 2025-12-01T00:23 | 19776 | 54 | -66.8 | |||
| 2025-12-01T00:23 | 19805 | 54 | -66.6 | 254 | 49 | |
| 2025-12-01T11:30 | 18 | 1012 | 4.0 | -7.2 | 240 | 4 |
| 2025-12-01T11:30 | 22 | 1012 | 4.2 | -7.6 | 240 | 1 |
| 2025-12-01T11:30 | 66 | 1006 | 268 | 4 | ||
| 2025-12-01T11:30 | 177 | 993 | 284 | 7 | ||
| 2025-12-01T11:31 | 353 | 971 | 273 | 10 | ||
| 2025-12-01T11:31 | 495 | 954 | 280 | 8 | ||
| 2025-12-01T11:32 | 735 | 926 | 256 | 9 | ||
| 2025-12-01T11:32 | 820 | 916 | -3.8 | -10.0 | ||
| 2025-12-01T11:33 | 994 | 896 | 250 | 11 | ||
| 2025-12-01T11:34 | 1253 | 867 | 249 | 13 | ||
| 2025-12-01T11:34 | 1311 | 860 | -8.3 | -11.6 | ||
| 2025-12-01T11:35 | 1504 | 839 | -10.3 | -12.2 | ||
| 2025-12-01T11:35 | 1538 | 835 | 259 | 12 | ||
| 2025-12-01T11:35 | 1542 | 835 | -10.5 | -13.3 | ||
| 2025-12-01T11:35 | 1574 | 831 | -10.1 | -15.4 | ||
| 2025-12-01T11:35 | 1622 | 826 | -10.4 | -17.7 | ||
| 2025-12-01T11:35 | 1644 | 824 | -9.9 | -21.0 | ||
| 2025-12-01T11:35 | 1664 | 822 | 271 | 14 | ||
| 2025-12-01T11:35 | 1678 | 820 | -10.4 | -21.4 | ||
| 2025-12-01T11:35 | 1701 | 818 | -9.2 | -29.2 | ||
| 2025-12-01T11:36 | 1745 | 813 | -9.6 | -30.1 | ||
| 2025-12-01T11:36 | 1783 | 809 | -8.8 | -46.5 | ||
| 2025-12-01T11:36 | 1834 | 804 | 284 | 21 | ||
| 2025-12-01T11:37 | 2134 | 773 | 283 | 23 | ||
| 2025-12-01T11:38 | 2509 | 736 | 284 | 22 | ||
| 2025-12-01T11:38 | 2567 | 730 | -15.3 | -43.5 | ||
| 2025-12-01T11:39 | 2769 | 711 | -15.8 | -54.8 | ||
| 2025-12-01T11:39 | 2810 | 707 | 281 | 24 | ||
| 2025-12-01T11:39 | 2961 | 693 | -16.5 | -55.3 | ||
| 2025-12-01T11:39 | 3036 | 686 | -15.7 | -60.3 | ||
| 2025-12-01T11:40 | 3102 | 680 | -15.3 | -60.1 | ||
| 2025-12-01T11:40 | 3129 | 678 | 272 | 30 | ||
| 2025-12-01T11:40 | 3268 | 666 | -14.9 | -50.8 | ||
| 2025-12-01T11:40 | 3364 | 657 | -15.3 | -42.3 | ||
| 2025-12-01T11:40 | 3458 | 649 | -15.8 | -34.7 | ||
| 2025-12-01T11:41 | 3470 | 648 | 267 | 31 | ||
| 2025-12-01T11:41 | 3739 | 625 | -16.9 | -31.9 | ||
| 2025-12-01T11:42 | 3783 | 621 | 258 | 37 | ||
| 2025-12-01T11:42 | 3956 | 607 | -16.7 | -31.0 | ||
| 2025-12-01T11:42 | 4070 | 598 | 250 | 40 | ||
| 2025-12-01T11:43 | 4137 | 593 | -17.4 | -30.2 | ||
| 2025-12-01T11:43 | 4378 | 574 | 250 | 39 | ||
| 2025-12-01T11:44 | 4617 | 556 | -21.3 | -32.7 | ||
| 2025-12-01T11:44 | 4771 | 544 | 250 | 40 | ||
| 2025-12-01T11:45 | 4872 | 537 | -23.5 | -33.9 | ||
| 2025-12-01T11:45 | 5198 | 513 | -26.1 | -34.8 | ||
| 2025-12-01T11:46 | 5213 | 512 | 249 | 41 | ||
| 2025-12-01T11:46 | 5359 | 502 | 252 | 43 | ||
| 2025-12-01T11:46 | 5516 | 491 | -28.8 | -34.7 | ||
| 2025-12-01T11:46 | 5592 | 486 | 254 | 46 | ||
| 2025-12-01T11:47 | 5766 | 474 | -31.0 | -35.9 | ||
| 2025-12-01T11:47 | 5967 | 461 | 252 | 44 | ||
| 2025-12-01T11:48 | 6114 | 451 | 252 | 44 | ||
| 2025-12-01T11:48 | 6184 | 447 | -34.1 | -40.2 | ||
| 2025-12-01T11:49 | 6425 | 432 | 252 | 47 | ||
| 2025-12-01T11:49 | 6625 | 419 | -36.8 | -44.2 | ||
| 2025-12-01T11:50 | 6712 | 414 | 253 | 48 | ||
| 2025-12-01T11:50 | 6815 | 408 | -38.2 | -45.7 | ||
| 2025-12-01T11:50 | 7064 | 393 | -39.7 | -48.9 | ||
| 2025-12-01T11:51 | 7106 | 391 | -40.0 | -49.4 | ||
| 2025-12-01T11:51 | 7113 | 391 | 253 | 51 | ||
| 2025-12-01T11:51 | 7390 | 375 | 257 | 51 | ||
| 2025-12-01T11:52 | 7607 | 363 | 258 | 54 | ||
| 2025-12-01T11:52 | 7834 | 351 | 256 | 54 | ||
| 2025-12-01T11:53 | 7987 | 343 | -47.4 | |||
| 2025-12-01T11:53 | 8085 | 338 | 258 | 56 | ||
| 2025-12-01T11:54 | 8434 | 320 | 257 | 60 | ||
| 2025-12-01T11:55 | 8792 | 303 | 256 | 58 | ||
| 2025-12-01T11:55 | 8798 | 303 | -52.6 | |||
| 2025-12-01T11:55 | 8985 | 294 | -52.1 | |||
| 2025-12-01T11:56 | 9201 | 285 | 255 | 58 | ||
| 2025-12-01T11:56 | 9289 | 281 | -53.4 | |||
| 2025-12-01T11:57 | 9564 | 269 | 257 | 62 | ||
| 2025-12-01T11:57 | 9694 | 264 | -53.6 | |||
| 2025-12-01T11:57 | 9729 | 262 | 254 | 59 | ||
| 2025-12-01T11:58 | 10053 | 249 | 253 | 59 | ||
| 2025-12-01T11:58 | 10072 | 249 | -54.3 | |||
| 2025-12-01T11:59 | 10314 | 239 | 256 | 59 | ||
| 2025-12-01T12:00 | 10478 | 233 | -51.6 | |||
| 2025-12-01T12:00 | 10652 | 227 | 258 | 61 | ||
| 2025-12-01T12:01 | 10848 | 220 | 259 | 56 | ||
| 2025-12-01T12:01 | 10938 | 217 | -51.8 | |||
| 2025-12-01T12:02 | 11175 | 210 | -50.4 | |||
| 2025-12-01T12:02 | 11256 | 207 | 253 | 52 | ||
| 2025-12-01T12:02 | 11316 | 205 | -49.9 | |||
| 2025-12-01T12:03 | 11648 | 195 | 249 | 48 | ||
| 2025-12-01T12:04 | 11945 | 186 | 250 | 56 | ||
| 2025-12-01T12:04 | 12082 | 182 | 251 | 51 | ||
| 2025-12-01T12:04 | 12106 | 182 | -50.4 | |||
| 2025-12-01T12:04 | 12221 | 179 | -50.1 | |||
| 2025-12-01T12:05 | 12392 | 174 | 252 | 49 | ||
| 2025-12-01T12:05 | 12520 | 171 | -52.0 | |||
| 2025-12-01T12:06 | 12688 | 166 | 246 | 45 | ||
| 2025-12-01T12:06 | 13011 | 158 | 248 | 49 | ||
| 2025-12-01T12:07 | 13292 | 151 | 250 | 48 | ||
| 2025-12-01T12:08 | 13675 | 143 | 248 | 49 | ||
| 2025-12-01T12:08 | 13782 | 140 | -54.3 | |||
| 2025-12-01T12:09 | 13933 | 137 | 243 | 48 | ||
| 2025-12-01T12:09 | 14002 | 135 | -53.9 | |||
| 2025-12-01T12:10 | 14171 | 132 | 242 | 47 | ||
| 2025-12-01T12:10 | 14306 | 129 | 241 | 49 | ||
| 2025-12-01T12:11 | 14389 | 128 | -52.9 | |||
| 2025-12-01T12:11 | 14577 | 124 | 238 | 44 | ||
| 2025-12-01T12:12 | 14959 | 117 | -54.7 | |||
| 2025-12-01T12:12 | 15007 | 116 | 237 | 41 | ||
| 2025-12-01T12:13 | 15561 | 106 | 248 | 46 | ||
| 2025-12-01T12:14 | 15932 | 100 | -60.7 | |||
| 2025-12-01T12:14 | 16138 | 97 | 252 | 43 | ||
| 2025-12-01T12:14 | 16155 | 97 | -61.5 | |||
| 2025-12-01T12:15 | 16612 | 90 | 249 | 46 | ||
| 2025-12-01T12:16 | 16784 | 87 | -64.0 | |||
| 2025-12-01T12:16 | 16898 | 86 | 253 | 48 | ||
| 2025-12-01T12:16 | 16972 | 85 | -63.3 | |||
| 2025-12-01T12:17 | 17119 | 83 | 256 | 51 | ||
| 2025-12-01T12:18 | 17334 | 80 | -62.0 | |||
| 2025-12-01T12:18 | 17446 | 78 | 255 | 52 | ||
| 2025-12-01T12:19 | 17849 | 73 | -63.3 | |||
| 2025-12-01T12:19 | 17956 | 72 | 258 | 50 | ||
| 2025-12-01T12:19 | 18246 | 69 | -63.2 | |||
| 2025-12-01T12:20 | 18363 | 67 | 253 | 47 | ||
| 2025-12-01T12:20 | 18480 | 66 | -62.2 | |||
| 2025-12-01T12:20 | 18710 | 64 | 251 | 52 | ||
| 2025-12-01T12:21 | 18908 | 62 | -61.7 | |||
| 2025-12-01T12:21 | 18998 | 61 | 256 | 54 | ||
| 2025-12-01T12:22 | 19240 | 59 | -59.3 | 264 | 59 | |
| 2025-12-01T12:23 | 19424 | 57 | 263 | 53 | ||
| 2025-12-01T12:23 | 19501 | 56 | -55.7 | |||
| 2025-12-01T12:23 | 19744 | 54 | 263 | 48 | ||
| 2025-12-01T12:24 | 19980 | 52 | 259 | 43 | ||
| 2025-12-01T12:24 | 20099 | 51 | -53.9 | |||
| 2025-12-01T12:24 | 20384 | 49 | -54.3 | |||
| 2025-12-01T12:24 | 20407 | 49 | 267 | 46 | ||
| 2025-12-01T12:25 | 20831 | 46 | 261 | 38 | ||
| 2025-12-01T12:25 | 20872 | 45 | -52.8 | |||
| 2025-12-01T12:26 | 21076 | 44 | 243 | 40 | ||
| 2025-12-01T12:26 | 21225 | 43 | -51.8 | |||
| 2025-12-01T12:27 | 21347 | 42 | 253 | 44 | ||
| 2025-12-01T12:27 | 21367 | 42 | -51.5 | 253 | 45 | |
| 2025-12-01T23:30 | 18 | 1015 | 1.4 | -6.0 | 180 | 1 |
| 2025-12-01T23:30 | 23 | 1014 | 1.6 | -6.5 | 0 | 0 |
| 2025-12-01T23:30 | 160 | 997 | 195 | 3 | ||
| 2025-12-01T23:31 | 403 | 967 | 180 | 3 | ||
| 2025-12-01T23:31 | 528 | 952 | -2.5 | -10.3 | ||
| 2025-12-01T23:31 | 548 | 950 | 171 | 1 | ||
| 2025-12-01T23:32 | 730 | 928 | -4.2 | -11.7 | ||
| 2025-12-01T23:32 | 779 | 922 | 273 | 3 | ||
| 2025-12-01T23:32 | 834 | 916 | -4.6 | -16.2 | ||
| 2025-12-01T23:32 | 966 | 901 | 267 | 5 | ||
| 2025-12-01T23:33 | 1086 | 887 | -6.4 | -19.7 | ||
| 2025-12-01T23:33 | 1128 | 882 | 254 | 6 | ||
| 2025-12-01T23:33 | 1242 | 869 | -7.0 | -29.3 | ||
| 2025-12-01T23:33 | 1300 | 863 | -6.5 | -33.2 | ||
| 2025-12-01T23:33 | 1371 | 855 | 241 | 10 | ||
| 2025-12-01T23:33 | 1419 | 850 | -6.4 | -26.3 | ||
| 2025-12-01T23:34 | 1637 | 826 | 245 | 8 | ||
| 2025-12-01T23:34 | 1722 | 817 | -9.2 | -21.5 | ||
| 2025-12-01T23:35 | 1968 | 792 | 247 | 12 | ||
| 2025-12-01T23:35 | 1974 | 791 | -11.1 | -17.3 | ||
| 2025-12-01T23:36 | 2270 | 761 | -12.7 | -15.1 | ||
| 2025-12-01T23:36 | 2355 | 753 | 256 | 18 | ||
| 2025-12-01T23:36 | 2388 | 749 | -13.4 | -16.6 | ||
| 2025-12-01T23:36 | 2569 | 732 | -14.6 | -18.0 | ||
| 2025-12-01T23:37 | 2656 | 723 | 257 | 23 | ||
| 2025-12-01T23:37 | 2825 | 707 | -14.6 | -19.9 | ||
| 2025-12-01T23:37 | 2909 | 699 | 259 | 32 | ||
| 2025-12-01T23:37 | 2992 | 692 | -15.2 | -18.8 | ||
| 2025-12-01T23:38 | 3168 | 676 | -15.9 | -21.0 | ||
| 2025-12-01T23:38 | 3188 | 674 | 256 | 37 | ||
| 2025-12-01T23:38 | 3365 | 658 | -15.9 | -23.3 | ||
| 2025-12-01T23:39 | 3579 | 640 | 248 | 38 | ||
| 2025-12-01T23:39 | 3670 | 632 | -18.1 | -23.8 | ||
| 2025-12-01T23:40 | 3888 | 614 | -19.5 | -21.7 | ||
| 2025-12-01T23:40 | 3974 | 607 | 245 | 41 | ||
| 2025-12-01T23:40 | 3981 | 607 | -19.9 | -23.5 | ||
| 2025-12-01T23:41 | 4296 | 581 | -21.9 | -26.1 | ||
| 2025-12-01T23:41 | 4367 | 576 | 248 | 38 | ||
| 2025-12-01T23:42 | 4653 | 554 | -24.0 | -28.6 | ||
| 2025-12-01T23:42 | 4769 | 545 | 246 | 40 | ||
| 2025-12-01T23:43 | 5013 | 527 | -26.8 | -29.9 | ||
| 2025-12-01T23:43 | 5163 | 516 | 243 | 42 | ||
| 2025-12-01T23:44 | 5411 | 498 | 247 | 45 | ||
| 2025-12-01T23:44 | 5457 | 495 | -29.8 | -33.2 | ||
| 2025-12-01T23:44 | 5691 | 479 | -31.8 | -34.4 | ||
| 2025-12-01T23:45 | 5799 | 472 | 250 | 47 | ||
| 2025-12-01T23:45 | 5877 | 467 | -33.2 | -36.0 | ||
| 2025-12-01T23:45 | 6033 | 456 | -34.2 | -36.7 | ||
| 2025-12-01T23:45 | 6151 | 449 | 248 | 52 | ||
| 2025-12-01T23:46 | 6290 | 440 | -35.8 | -37.2 | ||
| 2025-12-01T23:46 | 6416 | 432 | 243 | 55 | ||
| 2025-12-01T23:47 | 6580 | 422 | 245 | 58 | ||
| 2025-12-01T23:47 | 6593 | 421 | -37.7 | -40.2 | ||
| 2025-12-01T23:47 | 6718 | 413 | -38.6 | -42.2 | ||
| 2025-12-01T23:47 | 6863 | 405 | -39.7 | -44.5 | ||
| 2025-12-01T23:47 | 6897 | 403 | -40.0 | -45.0 | ||
| 2025-12-01T23:48 | 6993 | 397 | 247 | 58 | ||
| 2025-12-01T23:48 | 7298 | 380 | -43.1 | |||
| 2025-12-01T23:48 | 7335 | 378 | 248 | 57 | ||
| 2025-12-01T23:49 | 7760 | 354 | 250 | 54 | ||
| 2025-12-01T23:49 | 7795 | 352 | -46.9 | |||
| 2025-12-01T23:50 | 8196 | 332 | 246 | 52 | ||
| 2025-12-01T23:51 | 8331 | 325 | 249 | 56 | ||
| 2025-12-01T23:51 | 8449 | 319 | -52.1 | |||
| 2025-12-01T23:51 | 8582 | 312 | 251 | 54 | ||
| 2025-12-01T23:52 | 8779 | 303 | -53.8 | |||
| 2025-12-01T23:52 | 8952 | 295 | 252 | 55 | ||
| 2025-12-01T23:52 | 9000 | 293 | -53.8 | |||
| 2025-12-01T23:53 | 9127 | 287 | 253 | 52 | ||
| 2025-12-01T23:53 | 9234 | 282 | -55.4 | |||
| 2025-12-01T23:53 | 9288 | 280 | 246 | 50 | ||
| 2025-12-01T23:54 | 9407 | 275 | -55.4 | |||
| 2025-12-01T23:54 | 9655 | 264 | 247 | 51 | ||
| 2025-12-01T23:55 | 9858 | 256 | -55.4 | |||
| 2025-12-01T23:55 | 9915 | 254 | 248 | 53 | ||
| 2025-12-01T23:55 | 10062 | 248 | -55.7 | |||
| 2025-12-01T23:55 | 10095 | 247 | 241 | 50 | ||
| 2025-12-01T23:56 | 10378 | 236 | 236 | 54 | ||
| 2025-12-01T23:57 | 10603 | 228 | -57.5 | 233 | 59 | |
| 2025-12-01T23:57 | 10740 | 223 | -56.3 | |||
| 2025-12-01T23:58 | 10937 | 216 | -56.2 | 237 | 63 | |
| 2025-12-01T23:59 | 11265 | 205 | -54.3 | |||
| 2025-12-01T23:59 | 11282 | 205 | 243 | 62 | ||
| 2025-12-01T23:59 | 11425 | 200 | 242 | 58 | ||
| 2025-12-02T00:00 | 11764 | 190 | 244 | 57 | ||
| 2025-12-02T00:00 | 11823 | 188 | -52.0 | |||
| 2025-12-02T00:01 | 12123 | 180 | 247 | 54 | ||
| 2025-12-02T00:02 | 12456 | 171 | 247 | 50 | ||
| 2025-12-02T00:02 | 12569 | 168 | -53.3 | |||
| 2025-12-02T00:03 | 12762 | 163 | 246 | 51 | ||
| 2025-12-02T00:04 | 13061 | 155 | 249 | 51 | ||
| 2025-12-02T00:05 | 13215 | 152 | -53.4 | |||
| 2025-12-02T00:05 | 13377 | 148 | 247 | 47 | ||
| 2025-12-02T00:05 | 13488 | 145 | -54.6 | |||
| 2025-12-02T00:06 | 13652 | 142 | 248 | 47 | ||
| 2025-12-02T00:07 | 13890 | 136 | 247 | 45 | ||
| 2025-12-02T00:07 | 13940 | 135 | -54.9 | |||
| 2025-12-02T00:08 | 14229 | 129 | 249 | 47 | ||
| 2025-12-02T00:08 | 14314 | 128 | -56.2 | |||
| 2025-12-02T00:08 | 14522 | 124 | 249 | 42 | ||
| 2025-12-02T00:09 | 14714 | 120 | -56.9 | |||
| 2025-12-02T00:09 | 14779 | 119 | 245 | 43 | ||
| 2025-12-02T00:10 | 15019 | 114 | -58.4 | |||
| 2025-12-02T00:10 | 15124 | 112 | 249 | 48 | ||
| 2025-12-02T00:10 | 15179 | 111 | -58.8 | |||
| 2025-12-02T00:11 | 15474 | 106 | 246 | 44 | ||
| 2025-12-02T00:12 | 15827 | 100 | 244 | 46 | ||
| 2025-12-02T00:12 | 15851 | 100 | -59.2 | |||
| 2025-12-02T00:13 | 16168 | 95 | 251 | 48 | ||
| 2025-12-02T00:13 | 16243 | 94 | -59.0 | |||
| 2025-12-02T00:14 | 16510 | 90 | 258 | 45 | ||
| 2025-12-02T00:15 | 16798 | 86 | 253 | 49 | ||
| 2025-12-02T00:15 | 16817 | 86 | -58.7 | |||
| 2025-12-02T00:16 | 17188 | 81 | 253 | 40 | ||
| 2025-12-02T00:17 | 17440 | 78 | 244 | 37 | ||
| 2025-12-02T00:17 | 17613 | 76 | -57.3 | |||
| 2025-12-02T00:18 | 17826 | 73 | 238 | 36 | ||
| 2025-12-02T00:19 | 18188 | 69 | 248 | 45 | ||
| 2025-12-02T00:19 | 18280 | 68 | -59.1 | |||
| 2025-12-02T00:19 | 18527 | 65 | 246 | 43 | ||
| 2025-12-02T00:20 | 18652 | 64 | -58.6 | |||
| 2025-12-02T00:21 | 18923 | 61 | 248 | 41 | ||
| 2025-12-02T00:21 | 19139 | 59 | -57.7 | |||
| 2025-12-02T00:21 | 19291 | 58 | 244 | 40 | ||
| 2025-12-02T00:21 | 19304 | 58 | -55.8 | |||
| 2025-12-02T00:22 | 19689 | 54 | 244 | 37 | ||
| 2025-12-02T00:23 | 19808 | 53 | -54.9 | |||
| 2025-12-02T00:23 | 20026 | 52 | 235 | 41 | ||
| 2025-12-02T00:24 | 20213 | 50 | -56.6 | |||
| 2025-12-02T00:24 | 20461 | 48 | 244 | 45 | ||
| 2025-12-02T00:24 | 20539 | 48 | -57.0 | |||
| 2025-12-02T00:25 | 20727 | 46 | 249 | 45 | ||
| 2025-12-02T00:25 | 20982 | 44 | 249 | 40 | ||
| 2025-12-02T00:26 | 21070 | 44 | -55.3 | |||
| 2025-12-02T00:26 | 21125 | 43 | 251 | 39 | ||
| 2025-12-02T00:26 | 21354 | 42 | 249 | 36 | ||
| 2025-12-02T00:27 | 21621 | 40 | -52.2 | |||
| 2025-12-02T00:27 | 21686 | 40 | 254 | 38 | ||
| 2025-12-02T00:27 | 21818 | 39 | -51.2 | |||
| 2025-12-02T00:28 | 21939 | 38 | -49.2 | |||
| 2025-12-02T00:28 | 22058 | 38 | 256 | 36 | ||
| 2025-12-02T00:29 | 22397 | 36 | -50.0 | |||
| 2025-12-02T00:29 | 22424 | 36 | -49.8 | 260 | 33 | |
| 2025-12-02T11:30 | 18 | 1006 | 2.8 | 1.3 | 330 | 6 |
| 2025-12-02T11:30 | 22 | 1005 | 2.9 | 1.1 | 319 | 1 |
| 2025-12-02T11:30 | 101 | 996 | 339 | 5 | ||
| 2025-12-02T11:31 | 266 | 976 | 325 | 13 | ||
| 2025-12-02T11:31 | 403 | 959 | -0.3 | -0.7 | ||
| 2025-12-02T11:31 | 526 | 945 | 318 | 12 | ||
| 2025-12-02T11:32 | 665 | 928 | -0.5 | -1.2 | ||
| 2025-12-02T11:32 | 799 | 913 | 294 | 3 | ||
| 2025-12-02T11:32 | 812 | 911 | -1.7 | -2.1 | ||
| 2025-12-02T11:32 | 890 | 902 | -1.6 | -2.2 | ||
| 2025-12-02T11:33 | 929 | 898 | 256 | 7 | ||
| 2025-12-02T11:34 | 1347 | 852 | 245 | 11 | ||
| 2025-12-02T11:34 | 1512 | 834 | -5.1 | -5.9 | ||
| 2025-12-02T11:34 | 1597 | 825 | -5.8 | -6.7 | ||
| 2025-12-02T11:34 | 1715 | 813 | -6.5 | -7.4 | ||
| 2025-12-02T11:35 | 1809 | 803 | 255 | 14 | ||
| 2025-12-02T11:35 | 2059 | 777 | -9.7 | -11.3 | ||
| 2025-12-02T11:35 | 2089 | 774 | 247 | 18 | ||
| 2025-12-02T11:36 | 2546 | 730 | 240 | 25 | ||
| 2025-12-02T11:36 | 2633 | 721 | -14.4 | -18.8 | ||
| 2025-12-02T11:37 | 2910 | 695 | -16.8 | -24.3 | ||
| 2025-12-02T11:37 | 3007 | 686 | 227 | 31 | ||
| 2025-12-02T11:37 | 3029 | 684 | -17.5 | -26.6 | ||
| 2025-12-02T11:38 | 3222 | 667 | -17.6 | -21.8 | ||
| 2025-12-02T11:38 | 3393 | 652 | -18.6 | -21.2 | ||
| 2025-12-02T11:38 | 3426 | 649 | 229 | 33 | ||
| 2025-12-02T11:38 | 3554 | 638 | -18.7 | -20.6 | ||
| 2025-12-02T11:39 | 3794 | 618 | 224 | 34 | ||
| 2025-12-02T11:40 | 4037 | 597 | -22.5 | -25.6 | ||
| 2025-12-02T11:40 | 4117 | 591 | -23.4 | -32.3 | ||
| 2025-12-02T11:40 | 4140 | 589 | 221 | 34 | ||
| 2025-12-02T11:40 | 4169 | 587 | -23.9 | -36.0 | ||
| 2025-12-02T11:40 | 4227 | 582 | -24.1 | -38.2 | ||
| 2025-12-02T11:41 | 4490 | 561 | 223 | 34 | ||
| 2025-12-02T11:42 | 4721 | 544 | -26.0 | -41.9 | ||
| 2025-12-02T11:42 | 4785 | 539 | -25.8 | -39.0 | ||
| 2025-12-02T11:42 | 4842 | 535 | -25.6 | -33.6 | ||
| 2025-12-02T11:42 | 4861 | 533 | 225 | 40 | ||
| 2025-12-02T11:43 | 5209 | 508 | 227 | 40 | ||
| 2025-12-02T11:44 | 5411 | 494 | -30.1 | -33.2 | ||
| 2025-12-02T11:44 | 5627 | 479 | 234 | 43 | ||
| 2025-12-02T11:45 | 5905 | 461 | -33.6 | -37.0 | ||
| 2025-12-02T11:45 | 5972 | 456 | 234 | 49 | ||
| 2025-12-02T11:46 | 6258 | 438 | 230 | 53 | ||
| 2025-12-02T11:46 | 6351 | 432 | -37.3 | -40.6 | ||
| 2025-12-02T11:47 | 6637 | 415 | -40.0 | -43.2 | ||
| 2025-12-02T11:47 | 6657 | 413 | 232 | 52 | ||
| 2025-12-02T11:47 | 6867 | 401 | 233 | 55 | ||
| 2025-12-02T11:48 | 7041 | 391 | -43.0 | |||
| 2025-12-02T11:48 | 7169 | 383 | -43.6 | |||
| 2025-12-02T11:48 | 7224 | 380 | 231 | 58 | ||
| 2025-12-02T11:49 | 7616 | 358 | 232 | 58 | ||
| 2025-12-02T11:50 | 7783 | 349 | -48.7 | |||
| 2025-12-02T11:50 | 8016 | 337 | 229 | 56 | ||
| 2025-12-02T11:50 | 8057 | 335 | -49.5 | |||
| 2025-12-02T11:51 | 8416 | 317 | 232 | 56 | ||
| 2025-12-02T11:51 | 8462 | 315 | -51.6 | |||
| 2025-12-02T11:52 | 8822 | 298 | 236 | 56 | ||
| 2025-12-02T11:53 | 9041 | 288 | -54.6 | |||
| 2025-12-02T11:53 | 9181 | 282 | 234 | 54 | ||
| 2025-12-02T11:54 | 9534 | 267 | 232 | 56 | ||
| 2025-12-02T11:55 | 9686 | 260 | 237 | 56 | ||
| 2025-12-02T11:55 | 9727 | 259 | -54.4 | |||
| 2025-12-02T11:55 | 9945 | 250 | -53.8 | |||
| 2025-12-02T11:56 | 10051 | 246 | 238 | 56 | ||
| 2025-12-02T11:56 | 10274 | 238 | 245 | 55 | ||
| 2025-12-02T11:57 | 10596 | 226 | -53.8 | |||
| 2025-12-02T11:57 | 10667 | 223 | 243 | 53 | ||
| 2025-12-02T11:58 | 11028 | 211 | 240 | 53 | ||
| 2025-12-02T11:59 | 11213 | 205 | -52.8 | |||
| 2025-12-02T11:59 | 11305 | 202 | 243 | 55 | ||
| 2025-12-02T12:00 | 11541 | 195 | 246 | 54 | ||
| 2025-12-02T12:00 | 11608 | 193 | -51.0 | |||
| 2025-12-02T12:01 | 11688 | 191 | 247 | 51 | ||
| 2025-12-02T12:01 | 11886 | 185 | -51.0 | |||
| 2025-12-02T12:02 | 12025 | 181 | 248 | 52 | ||
| 2025-12-02T12:02 | 12146 | 178 | -51.3 | |||
| 2025-12-02T12:03 | 12404 | 171 | 251 | 52 | ||
| 2025-12-02T12:03 | 12471 | 169 | -51.1 | |||
| 2025-12-02T12:03 | 12614 | 165 | 250 | 52 | ||
| 2025-12-02T12:04 | 12912 | 158 | 250 | 51 | ||
| 2025-12-02T12:05 | 13180 | 152 | 250 | 49 | ||
| 2025-12-02T12:05 | 13218 | 151 | -51.6 | |||
| 2025-12-02T12:06 | 13494 | 144 | 249 | 48 | ||
| 2025-12-02T12:07 | 13832 | 137 | -52.9 | |||
| 2025-12-02T12:07 | 13857 | 137 | 243 | 49 | ||
| 2025-12-02T12:08 | 14215 | 129 | 243 | 51 | ||
| 2025-12-02T12:08 | 14226 | 129 | -54.1 | |||
| 2025-12-02T12:09 | 14529 | 123 | 247 | 49 | ||
| 2025-12-02T12:10 | 14759 | 119 | -55.2 | |||
| 2025-12-02T12:10 | 14834 | 117 | 244 | 44 | ||
| 2025-12-02T12:10 | 14915 | 116 | -54.9 | |||
| 2025-12-02T12:11 | 15190 | 111 | 239 | 48 | ||
| 2025-12-02T12:11 | 15208 | 111 | -56.7 | |||
| 2025-12-02T12:12 | 15394 | 107 | -56.7 | |||
| 2025-12-02T12:12 | 15542 | 105 | 243 | 43 | ||
| 2025-12-02T12:13 | 15891 | 99 | -57.4 | 241 | 49 | |
| 2025-12-02T12:14 | 16097 | 96 | 244 | 53 | ||
| 2025-12-02T12:15 | 16357 | 92 | 250 | 50 | ||
| 2025-12-02T12:15 | 16507 | 90 | -58.6 | |||
| 2025-12-02T12:15 | 16604 | 89 | 255 | 48 | ||
| 2025-12-02T12:15 | 16640 | 88 | -55.6 | |||
| 2025-12-02T12:16 | 16754 | 87 | 255 | 44 | ||
| 2025-12-02T12:16 | 16893 | 85 | -56.0 | |||
| 2025-12-02T12:16 | 16913 | 84 | 247 | 35 | ||
| 2025-12-02T12:17 | 17108 | 82 | -55.6 | |||
| 2025-12-02T12:17 | 17267 | 80 | 240 | 34 | ||
| 2025-12-02T12:18 | 17637 | 75 | 248 | 33 | ||
| 2025-12-02T12:19 | 17834 | 73 | -54.8 | |||
| 2025-12-02T12:19 | 18021 | 71 | 233 | 33 | ||
| 2025-12-02T12:20 | 18417 | 67 | 234 | 41 | ||
| 2025-12-02T12:20 | 18579 | 65 | 237 | 44 | ||
| 2025-12-02T12:20 | 18591 | 65 | -58.3 | |||
| 2025-12-02T12:21 | 18718 | 64 | 240 | 46 | ||
| 2025-12-02T12:21 | 18758 | 63 | -56.7 | |||
| 2025-12-02T12:22 | 19088 | 60 | 254 | 44 | ||
| 2025-12-02T12:22 | 19259 | 58 | 260 | 40 | ||
| 2025-12-02T12:23 | 19439 | 57 | -55.2 | |||
| 2025-12-02T12:23 | 19624 | 55 | 248 | 41 | ||
| 2025-12-02T12:23 | 19636 | 55 | -53.8 | |||
| 2025-12-02T12:24 | 19995 | 52 | 243 | 40 | ||
| 2025-12-02T12:25 | 20069 | 51 | -53.7 | |||
| 2025-12-02T12:25 | 20297 | 50 | -53.5 | |||
| 2025-12-02T12:25 | 20374 | 49 | 235 | 37 | ||
| 2025-12-02T12:26 | 20738 | 46 | 235 | 43 | ||
| 2025-12-02T12:27 | 20878 | 45 | -53.5 | |||
| 2025-12-02T12:27 | 21064 | 44 | 238 | 41 | ||
| 2025-12-02T12:28 | 21320 | 42 | -52.4 | |||
| 2025-12-02T12:28 | 21395 | 42 | 225 | 42 | ||
| 2025-12-02T12:29 | 21760 | 40 | 225 | 39 | ||
| 2025-12-02T12:30 | 22125 | 37 | -55.4 | |||
| 2025-12-02T12:30 | 22143 | 37 | 229 | 36 | ||
| 2025-12-02T12:31 | 22302 | 36 | -53.2 | |||
| 2025-12-02T12:31 | 22537 | 35 | 228 | 35 | ||
| 2025-12-02T12:32 | 22762 | 34 | 234 | 34 | ||
| 2025-12-02T12:33 | 23016 | 33 | -49.4 | |||
| 2025-12-02T12:33 | 23139 | 32 | 238 | 38 | ||
| 2025-12-02T12:33 | 23266 | 31 | 243 | 38 | ||
| 2025-12-02T12:33 | 23306 | 31 | -46.9 | |||
| 2025-12-02T12:34 | 23566 | 30 | 251 | 36 | ||
| 2025-12-02T12:35 | 23725 | 29 | 258 | 30 | ||
| 2025-12-02T12:35 | 23935 | 28 | -43.0 | |||
| 2025-12-02T12:35 | 24054 | 28 | 250 | 23 | ||
| 2025-12-02T12:36 | 24227 | 27 | -39.8 | |||
| 2025-12-02T12:36 | 24406 | 26 | 210 | 15 | ||
| 2025-12-02T12:37 | 24857 | 25 | 213 | 12 | ||
| 2025-12-02T12:38 | 25357 | 23 | 197 | 11 | ||
| 2025-12-02T12:39 | 25561 | 22 | 199 | 14 | ||
| 2025-12-02T12:39 | 25792 | 21 | -50.6 | 208 | 15 | |
| 2025-12-02T23:30 | 18 | 1008 | 0.5 | -4.3 | 50 | 2 |
| 2025-12-02T23:30 | 23 | 1007 | 0.8 | -4.6 | 0 | 0 |
| 2025-12-02T23:31 | 189 | 986 | -1.2 | -5.2 | ||
| 2025-12-02T23:31 | 308 | 972 | 129 | 3 | ||
| 2025-12-02T23:31 | 355 | 966 | -2.9 | -6.2 | ||
| 2025-12-02T23:31 | 409 | 960 | -3.0 | -9.1 | ||
| 2025-12-02T23:32 | 522 | 946 | 163 | 3 | ||
| 2025-12-02T23:32 | 533 | 945 | -4.3 | -8.6 | ||
| 2025-12-02T23:32 | 580 | 939 | 187 | 1 | ||
| 2025-12-02T23:32 | 592 | 938 | -4.6 | -10.2 | ||
| 2025-12-02T23:32 | 652 | 931 | -5.3 | -9.7 | 291 | 3 |
| 2025-12-02T23:32 | 702 | 925 | -5.5 | -12.2 | ||
| 2025-12-02T23:32 | 766 | 917 | -6.2 | -13.6 | ||
| 2025-12-02T23:32 | 818 | 911 | -6.1 | -17.5 | ||
| 2025-12-02T23:32 | 838 | 909 | 259 | 11 | ||
| 2025-12-02T23:33 | 1130 | 875 | -8.5 | -21.2 | 263 | 12 |
| 2025-12-02T23:33 | 1294 | 857 | -9.4 | -25.0 | ||
| 2025-12-02T23:34 | 1435 | 841 | 276 | 16 | ||
| 2025-12-02T23:34 | 1477 | 837 | -10.1 | -31.9 | ||
| 2025-12-02T23:34 | 1560 | 828 | -10.3 | -33.5 | ||
| 2025-12-02T23:35 | 1929 | 789 | 265 | 19 | ||
| 2025-12-02T23:35 | 2094 | 772 | -15.5 | -30.7 | ||
| 2025-12-02T23:36 | 2363 | 745 | -17.6 | -28.8 | ||
| 2025-12-02T23:36 | 2395 | 742 | 256 | 23 | ||
| 2025-12-02T23:36 | 2577 | 724 | -18.7 | -30.7 | ||
| 2025-12-02T23:36 | 2699 | 712 | 256 | 29 | ||
| 2025-12-02T23:37 | 2794 | 703 | -20.5 | -27.6 | ||
| 2025-12-02T23:37 | 3069 | 677 | -22.6 | -24.2 | ||
| 2025-12-02T23:37 | 3123 | 672 | 249 | 32 | ||
| 2025-12-02T23:38 | 3383 | 649 | -25.3 | -26.8 | ||
| 2025-12-02T23:38 | 3442 | 644 | -25.4 | -34.3 | ||
| 2025-12-02T23:38 | 3489 | 640 | -25.6 | -45.3 | 252 | 31 |
| 2025-12-02T23:38 | 3546 | 635 | -25.3 | -45.1 | ||
| 2025-12-02T23:39 | 3615 | 629 | -25.3 | -39.6 | ||
| 2025-12-02T23:39 | 3671 | 624 | -25.0 | -40.6 | ||
| 2025-12-02T23:39 | 3824 | 611 | 238 | 33 | ||
| 2025-12-02T23:40 | 3986 | 597 | -25.3 | -40.4 | ||
| 2025-12-02T23:40 | 4051 | 592 | 240 | 37 | ||
| 2025-12-02T23:41 | 4390 | 565 | 243 | 38 | ||
| 2025-12-02T23:41 | 4460 | 559 | -28.0 | -44.5 | ||
| 2025-12-02T23:42 | 4749 | 537 | 239 | 39 | ||
| 2025-12-02T23:43 | 4994 | 519 | -32.6 | -47.2 | ||
| 2025-12-02T23:43 | 5094 | 511 | 236 | 39 | ||
| 2025-12-02T23:43 | 5242 | 501 | 236 | 41 | ||
| 2025-12-02T23:44 | 5540 | 480 | -37.1 | -47.0 | ||
| 2025-12-02T23:44 | 5615 | 474 | 235 | 39 | ||
| 2025-12-02T23:45 | 5765 | 464 | 233 | 39 | ||
| 2025-12-02T23:45 | 5980 | 450 | -39.0 | -53.1 | ||
| 2025-12-02T23:46 | 6124 | 441 | -40.0 | -54.0 | ||
| 2025-12-02T23:46 | 6150 | 439 | 235 | 43 | ||
| 2025-12-02T23:46 | 6317 | 428 | 238 | 46 | ||
| 2025-12-02T23:46 | 6350 | 426 | -40.9 | |||
| 2025-12-02T23:46 | 6449 | 420 | 236 | 50 | ||
| 2025-12-02T23:47 | 6710 | 404 | -41.7 | |||
| 2025-12-02T23:47 | 6827 | 397 | 240 | 60 | ||
| 2025-12-02T23:48 | 7011 | 387 | -41.6 | |||
| 2025-12-02T23:48 | 7077 | 383 | -41.3 | |||
| 2025-12-02T23:48 | 7220 | 375 | 241 | 76 | ||
| 2025-12-02T23:49 | 7648 | 352 | -44.9 | 241 | 81 | |
| 2025-12-02T23:50 | 8070 | 330 | 241 | 82 | ||
| 2025-12-02T23:51 | 8145 | 326 | -48.5 | |||
| 2025-12-02T23:51 | 8247 | 321 | 241 | 81 | ||
| 2025-12-02T23:51 | 8331 | 317 | -49.6 | |||
| 2025-12-02T23:51 | 8455 | 311 | 241 | 77 | ||
| 2025-12-02T23:52 | 8472 | 310 | -49.9 | |||
| 2025-12-02T23:52 | 8613 | 304 | -50.5 | |||
| 2025-12-02T23:52 | 8728 | 299 | 240 | 75 | ||
| 2025-12-02T23:53 | 9030 | 285 | 239 | 70 | ||
| 2025-12-02T23:53 | 9081 | 283 | -49.7 | |||
| 2025-12-02T23:54 | 9282 | 274 | -49.2 | |||
| 2025-12-02T23:54 | 9329 | 272 | 243 | 68 | ||
| 2025-12-02T23:55 | 9591 | 262 | 241 | 66 | ||
| 2025-12-02T23:56 | 9663 | 259 | -46.8 | |||
| 2025-12-02T23:56 | 9847 | 252 | 238 | 63 | ||
| 2025-12-02T23:56 | 9883 | 250 | -46.6 | |||
| 2025-12-02T23:57 | 10136 | 241 | 243 | 64 | ||
| 2025-12-02T23:58 | 10373 | 233 | 240 | 62 | ||
| 2025-12-02T23:59 | 10598 | 225 | -46.6 | |||
| 2025-12-02T23:59 | 10747 | 220 | 239 | 62 | ||
| 2025-12-03T00:00 | 11103 | 208 | 240 | 62 | ||
| 2025-12-03T00:00 | 11205 | 205 | -48.9 | |||
| 2025-12-03T00:01 | 11430 | 198 | 243 | 59 | ||
| 2025-12-03T00:02 | 11718 | 190 | 238 | 58 | ||
| 2025-12-03T00:02 | 11759 | 188 | -50.2 | |||
| 2025-12-03T00:03 | 11873 | 185 | -49.4 | |||
| 2025-12-03T00:03 | 11996 | 182 | 244 | 59 | ||
| 2025-12-03T00:04 | 12310 | 173 | 244 | 55 | ||
| 2025-12-03T00:04 | 12469 | 169 | -50.1 | |||
| 2025-12-03T00:05 | 12672 | 164 | 247 | 52 | ||
| 2025-12-03T00:05 | 12794 | 161 | -51.0 | |||
| 2025-12-03T00:05 | 12839 | 160 | 247 | 49 | ||
| 2025-12-03T00:06 | 13185 | 151 | -53.1 | 247 | 52 | |
| 2025-12-03T00:07 | 13471 | 145 | -52.6 | |||
| 2025-12-03T00:07 | 13491 | 144 | 247 | 49 | ||
| 2025-12-03T00:08 | 13650 | 141 | -52.2 | |||
| 2025-12-03T00:08 | 13774 | 138 | 237 | 46 | ||
| 2025-12-03T00:09 | 13952 | 134 | -52.5 | |||
| 2025-12-03T00:09 | 14069 | 132 | 240 | 44 | ||
| 2025-12-03T00:10 | 14402 | 125 | 240 | 41 | ||
| 2025-12-03T00:11 | 14579 | 122 | -55.8 | |||
| 2025-12-03T00:11 | 14764 | 118 | 234 | 44 | ||
| 2025-12-03T00:12 | 15062 | 113 | 239 | 46 | ||
| 2025-12-03T00:12 | 15104 | 112 | -58.2 | |||
| 2025-12-03T00:13 | 15478 | 106 | 241 | 45 | ||
| 2025-12-03T00:13 | 15578 | 104 | -57.3 | |||
| 2025-12-03T00:14 | 15820 | 100 | 238 | 40 | ||
| 2025-12-03T00:15 | 16155 | 95 | 240 | 41 | ||
| 2025-12-03T00:16 | 16483 | 90 | 250 | 45 | ||
| 2025-12-03T00:16 | 16501 | 90 | -60.6 | |||
| 2025-12-03T00:17 | 16820 | 85 | -60.5 | |||
| 2025-12-03T00:17 | 16904 | 84 | 250 | 44 | ||
| 2025-12-03T00:17 | 17127 | 81 | -61.1 | |||
| 2025-12-03T00:17 | 17150 | 81 | 240 | 45 | ||
| 2025-12-03T00:18 | 17364 | 78 | 242 | 48 | ||
| 2025-12-03T00:19 | 17709 | 74 | -60.7 | |||
| 2025-12-03T00:19 | 17727 | 74 | 248 | 53 | ||
| 2025-12-03T00:20 | 17926 | 71 | -59.0 | |||
| 2025-12-03T00:20 | 18022 | 70 | 252 | 50 | ||
| 2025-12-03T00:20 | 18130 | 69 | -55.3 | |||
| 2025-12-03T00:21 | 18194 | 68 | 252 | 52 | ||
| 2025-12-03T00:21 | 18386 | 66 | -52.4 | |||
| 2025-12-03T00:22 | 18475 | 66 | 253 | 44 | ||
| 2025-12-03T00:22 | 18554 | 65 | -50.3 | |||
| 2025-12-03T00:22 | 18658 | 64 | -48.9 | |||
| 2025-12-03T00:23 | 18825 | 62 | 254 | 29 | ||
| 2025-12-03T00:23 | 19040 | 60 | -47.2 | |||
| 2025-12-03T00:24 | 19243 | 58 | 251 | 21 | ||
| 2025-12-03T00:25 | 19660 | 55 | 230 | 16 | ||
| 2025-12-03T00:25 | 19673 | 55 | -48.5 | |||
| 2025-12-03T00:25 | 19966 | 52 | 230 | 13 | ||
| 2025-12-03T00:26 | 20288 | 50 | -51.6 | |||
| 2025-12-03T00:26 | 20300 | 50 | 222 | 21 | ||
| 2025-12-03T00:27 | 20538 | 48 | 229 | 28 | ||
| 2025-12-03T00:28 | 20760 | 46 | -52.5 | |||
| 2025-12-03T00:28 | 20873 | 45 | 235 | 28 | ||
| 2025-12-03T00:29 | 21018 | 44 | 235 | 24 | ||
| 2025-12-03T00:29 | 21152 | 44 | -49.8 | |||
| 2025-12-03T00:29 | 21227 | 43 | 230 | 29 | ||
| 2025-12-03T00:30 | 21570 | 41 | 208 | 26 | ||
| 2025-12-03T00:31 | 21635 | 40 | -49.8 | |||
| 2025-12-03T00:31 | 22001 | 38 | 204 | 27 | ||
| 2025-12-03T00:32 | 22465 | 36 | 207 | 29 | ||
| 2025-12-03T00:33 | 22502 | 35 | -56.7 | |||
| 2025-12-03T00:33 | 22910 | 33 | 225 | 36 | ||
| 2025-12-03T00:34 | 22965 | 33 | -56.6 | |||
| 2025-12-03T00:34 | 23182 | 32 | -57.3 | |||
| 2025-12-03T00:34 | 23262 | 31 | 234 | 40 | ||
| 2025-12-03T00:35 | 23345 | 31 | -53.0 | |||
| 2025-12-03T00:35 | 23475 | 30 | -47.9 | |||
| 2025-12-03T00:36 | 23583 | 30 | 248 | 32 | ||
| 2025-12-03T00:36 | 23810 | 29 | -44.2 | |||
| 2025-12-03T00:36 | 23930 | 28 | 245 | 26 | ||
| 2025-12-03T00:37 | 24411 | 26 | 244 | 30 | ||
| 2025-12-03T00:38 | 24544 | 26 | -47.5 | |||
| 2025-12-03T00:38 | 24749 | 25 | -46.4 | |||
| 2025-12-03T00:38 | 24857 | 25 | 244 | 24 | ||
| 2025-12-03T00:39 | 25216 | 23 | 236 | 22 | ||
| 2025-12-03T00:40 | 25447 | 23 | 230 | 17 | ||
| 2025-12-03T00:40 | 25509 | 22 | -48.3 | |||
| 2025-12-03T00:41 | 25808 | 21 | 218 | 18 | ||
| 2025-12-03T00:41 | 25961 | 21 | -51.3 | |||
| 2025-12-03T00:41 | 25993 | 21 | 225 | 17 | ||
| 2025-12-03T00:42 | 26089 | 20 | 211 | 12 | ||
| 2025-12-03T00:42 | 26153 | 20 | -49.6 | |||
| 2025-12-03T00:42 | 26283 | 20 | -49.0 | 225 | 11 | |
| 2025-12-03T11:30 | 18 | 1004 | -2.3 | -6.1 | 330 | 4 |
| 2025-12-03T11:30 | 22 | 1003 | -2.1 | -6.5 | 0 | 0 |
| 2025-12-03T11:30 | 63 | 998 | 318 | 3 | ||
| 2025-12-03T11:30 | 166 | 985 | 326 | 7 | ||
| 2025-12-03T11:31 | 227 | 978 | -4.1 | -9.5 | ||
| 2025-12-03T11:31 | 429 | 953 | -5.6 | -10.9 | ||
| 2025-12-03T11:31 | 435 | 952 | 294 | 7 | ||
| 2025-12-03T11:32 | 573 | 936 | 311 | 4 | ||
| 2025-12-03T11:32 | 697 | 921 | 305 | 4 | ||
| 2025-12-03T11:32 | 803 | 908 | 273 | 4 | ||
| 2025-12-03T11:33 | 944 | 892 | -10.2 | -12.7 | ||
| 2025-12-03T11:33 | 1038 | 881 | -10.7 | -14.4 | ||
| 2025-12-03T11:33 | 1049 | 880 | 284 | 6 | ||
| 2025-12-03T11:34 | 1197 | 863 | -12.2 | -14.8 | ||
| 2025-12-03T11:34 | 1240 | 858 | 274 | 9 | ||
| 2025-12-03T11:34 | 1253 | 857 | -12.5 | -16.2 | ||
| 2025-12-03T11:34 | 1329 | 848 | -12.8 | -16.3 | ||
| 2025-12-03T11:34 | 1433 | 837 | -13.5 | -17.0 | ||
| 2025-12-03T11:34 | 1486 | 831 | 308 | 7 | ||
| 2025-12-03T11:35 | 1680 | 810 | -15.0 | -17.8 | ||
| 2025-12-03T11:35 | 1724 | 805 | 301 | 3 | ||
| 2025-12-03T11:35 | 1812 | 796 | -15.2 | -18.6 | ||
| 2025-12-03T11:35 | 1836 | 793 | 267 | 4 | ||
| 2025-12-03T11:36 | 2157 | 760 | 248 | 8 | ||
| 2025-12-03T11:36 | 2250 | 751 | -18.6 | -20.8 | ||
| 2025-12-03T11:37 | 2491 | 727 | 246 | 12 | ||
| 2025-12-03T11:38 | 2657 | 711 | -22.0 | -23.4 | ||
| 2025-12-03T11:38 | 2806 | 697 | 238 | 18 | ||
| 2025-12-03T11:38 | 2812 | 696 | -22.7 | -24.8 | ||
| 2025-12-03T11:38 | 2897 | 688 | -22.6 | -24.8 | ||
| 2025-12-03T11:39 | 3041 | 675 | -23.2 | -25.4 | 218 | 12 |
| 2025-12-03T11:39 | 3324 | 649 | -24.0 | -26.1 | ||
| 2025-12-03T11:39 | 3384 | 644 | 211 | 21 | ||
| 2025-12-03T11:40 | 3618 | 623 | 213 | 26 | ||
| 2025-12-03T11:41 | 3813 | 606 | -26.8 | -29.6 | ||
| 2025-12-03T11:41 | 3995 | 591 | 190 | 23 | ||
| 2025-12-03T11:41 | 4033 | 588 | -27.8 | -30.5 | ||
| 2025-12-03T11:42 | 4379 | 560 | 198 | 24 | ||
| 2025-12-03T11:43 | 4566 | 546 | -32.6 | -35.9 | ||
| 2025-12-03T11:43 | 4764 | 530 | 193 | 25 | ||
| 2025-12-03T11:43 | 4858 | 523 | -34.8 | -38.3 | ||
| 2025-12-03T11:44 | 5034 | 510 | 191 | 26 | ||
| 2025-12-03T11:44 | 5041 | 510 | -35.7 | -41.0 | ||
| 2025-12-03T11:45 | 5429 | 482 | -38.4 | -45.7 | 204 | 30 |
| 2025-12-03T11:45 | 5566 | 473 | -39.2 | -48.7 | ||
| 2025-12-03T11:45 | 5605 | 470 | 208 | 34 | ||
| 2025-12-03T11:46 | 5689 | 464 | -40.0 | -51.9 | ||
| 2025-12-03T11:46 | 5807 | 456 | -40.4 | |||
| 2025-12-03T11:46 | 5878 | 452 | 213 | 35 | ||
| 2025-12-03T11:47 | 6203 | 431 | 212 | 40 | ||
| 2025-12-03T11:47 | 6255 | 427 | -40.9 | |||
| 2025-12-03T11:48 | 6596 | 406 | 218 | 38 | ||
| 2025-12-03T11:49 | 6950 | 385 | 218 | 39 | ||
| 2025-12-03T11:49 | 7046 | 380 | -46.4 | |||
| 2025-12-03T11:50 | 7275 | 367 | -47.4 | |||
| 2025-12-03T11:50 | 7342 | 363 | 217 | 43 | ||
| 2025-12-03T11:50 | 7632 | 348 | -48.4 | |||
| 2025-12-03T11:51 | 7703 | 344 | -47.8 | |||
| 2025-12-03T11:51 | 7724 | 343 | 218 | 43 | ||
| 2025-12-03T11:51 | 7844 | 337 | 218 | 40 | ||
| 2025-12-03T11:51 | 7879 | 335 | -48.5 | |||
| 2025-12-03T11:52 | 8176 | 320 | -48.3 | |||
| 2025-12-03T11:52 | 8205 | 319 | 212 | 43 | ||
| 2025-12-03T11:52 | 8386 | 310 | -49.0 | |||
| 2025-12-03T11:52 | 8485 | 305 | -49.2 | |||
| 2025-12-03T11:53 | 8573 | 301 | -48.9 | |||
| 2025-12-03T11:53 | 8604 | 300 | 210 | 45 | ||
| 2025-12-03T11:53 | 8726 | 294 | 210 | 46 | ||
| 2025-12-03T11:53 | 8737 | 294 | -48.8 | |||
| 2025-12-03T11:53 | 8819 | 290 | 208 | 48 | ||
| 2025-12-03T11:54 | 9007 | 282 | -47.8 | |||
| 2025-12-03T11:54 | 9030 | 281 | 211 | 51 | ||
| 2025-12-03T11:55 | 9218 | 273 | -47.4 | |||
| 2025-12-03T11:55 | 9263 | 271 | 218 | 51 | ||
| 2025-12-03T11:55 | 9349 | 268 | -46.3 | |||
| 2025-12-03T11:55 | 9401 | 266 | 216 | 52 | ||
| 2025-12-03T11:56 | 9582 | 259 | -46.5 | |||
| 2025-12-03T11:56 | 9755 | 252 | 216 | 51 | ||
| 2025-12-03T11:56 | 9761 | 252 | -46.3 | |||
| 2025-12-03T11:56 | 9875 | 247 | -45.9 | |||
| 2025-12-03T11:57 | 10100 | 239 | 217 | 52 | ||
| 2025-12-03T11:58 | 10467 | 226 | 224 | 54 | ||
| 2025-12-03T11:59 | 10629 | 221 | -45.9 | |||
| 2025-12-03T11:59 | 10852 | 214 | 227 | 53 | ||
| 2025-12-03T11:59 | 10935 | 211 | -45.7 | |||
| 2025-12-03T12:00 | 11220 | 202 | 231 | 55 | ||
| 2025-12-03T12:01 | 11439 | 196 | -45.8 | |||
| 2025-12-03T12:01 | 11555 | 192 | 231 | 50 | ||
| 2025-12-03T12:02 | 11768 | 186 | -47.4 | |||
| 2025-12-03T12:02 | 11884 | 183 | 233 | 51 | ||
| 2025-12-03T12:03 | 12077 | 178 | -47.8 | |||
| 2025-12-03T12:03 | 12239 | 173 | 230 | 52 | ||
| 2025-12-03T12:04 | 12392 | 169 | 234 | 49 | ||
| 2025-12-03T12:05 | 12729 | 161 | 237 | 50 | ||
| 2025-12-03T12:05 | 12741 | 161 | -50.3 | |||
| 2025-12-03T12:05 | 13000 | 154 | 235 | 46 | ||
| 2025-12-03T12:06 | 13364 | 146 | 236 | 49 | ||
| 2025-12-03T12:06 | 13376 | 146 | -50.2 | |||
| 2025-12-03T12:07 | 13720 | 138 | 240 | 47 | ||
| 2025-12-03T12:08 | 13829 | 136 | -50.2 | |||
| 2025-12-03T12:08 | 14062 | 131 | 240 | 43 | ||
| 2025-12-03T12:09 | 14247 | 127 | -51.2 | |||
| 2025-12-03T12:09 | 14433 | 124 | 240 | 44 | ||
| 2025-12-03T12:10 | 14770 | 117 | -54.0 | |||
| 2025-12-03T12:10 | 14821 | 117 | 243 | 45 | ||
| 2025-12-03T12:11 | 15074 | 112 | 246 | 44 | ||
| 2025-12-03T12:11 | 15146 | 111 | -54.2 | |||
| 2025-12-03T12:12 | 15369 | 107 | -55.1 | |||
| 2025-12-03T12:12 | 15407 | 106 | 245 | 39 | ||
| 2025-12-03T12:12 | 15608 | 103 | 245 | 42 | ||
| 2025-12-03T12:13 | 15740 | 101 | -54.4 | |||
| 2025-12-03T12:13 | 16000 | 97 | 253 | 42 | ||
| 2025-12-03T12:14 | 16076 | 96 | -53.5 | |||
| 2025-12-03T12:14 | 16366 | 92 | 243 | 39 | ||
| 2025-12-03T12:15 | 16622 | 88 | -52.8 | |||
| 2025-12-03T12:15 | 16739 | 86 | 234 | 40 | ||
| 2025-12-03T12:16 | 16960 | 84 | -52.2 | |||
| 2025-12-03T12:16 | 17128 | 81 | 235 | 41 | ||
| 2025-12-03T12:17 | 17349 | 79 | -54.1 | |||
| 2025-12-03T12:17 | 17498 | 77 | 245 | 41 | ||
| 2025-12-03T12:18 | 17608 | 76 | -53.9 | |||
| 2025-12-03T12:18 | 17887 | 72 | 245 | 36 | ||
| 2025-12-03T12:18 | 17974 | 71 | -54.4 | |||
| 2025-12-03T12:19 | 18279 | 68 | 245 | 34 | ||
| 2025-12-03T12:20 | 18529 | 65 | -53.8 | |||
| 2025-12-03T12:20 | 18659 | 64 | 236 | 34 | ||
| 2025-12-03T12:21 | 18975 | 61 | 238 | 32 | ||
| 2025-12-03T12:21 | 19008 | 61 | -53.7 | |||
| 2025-12-03T12:21 | 19116 | 60 | 242 | 25 | ||
| 2025-12-03T12:22 | 19323 | 58 | -53.2 | |||
| 2025-12-03T12:22 | 19371 | 57 | 248 | 28 | ||
| 2025-12-03T12:22 | 19530 | 56 | -53.1 | |||
| 2025-12-03T12:22 | 19599 | 55 | 247 | 21 | ||
| 2025-12-03T12:23 | 19751 | 54 | -52.7 | |||
| 2025-12-03T12:23 | 20008 | 52 | 218 | 26 | ||
| 2025-12-03T12:24 | 20347 | 49 | -56.5 | 209 | 29 | |
| 2025-12-03T12:25 | 20776 | 46 | 211 | 32 | ||
| 2025-12-03T12:25 | 20804 | 46 | -56.0 | |||
| 2025-12-03T12:26 | 21001 | 45 | 218 | 36 | ||
| 2025-12-03T12:26 | 21147 | 44 | -52.5 | |||
| 2025-12-03T12:26 | 21236 | 43 | 217 | 42 | ||
| 2025-12-03T12:27 | 21463 | 41 | 218 | 44 | ||
| 2025-12-03T12:27 | 21545 | 41 | -54.5 | |||
| 2025-12-03T12:28 | 21784 | 39 | -52.2 | 222 | 46 | |
| 2025-12-03T23:30 | 18 | 1002 | -4.0 | -12.4 | 300 | 5 |
| 2025-12-03T23:30 | 19 | 1002 | -3.7 | -12.1 | 300 | 1 |
| 2025-12-03T23:30 | 23 | 1002 | -3.8 | -13.0 | ||
| 2025-12-03T23:30 | 36 | 1000 | -4.4 | -14.3 | ||
| 2025-12-03T23:30 | 51 | 998 | 292 | 5 | ||
| 2025-12-03T23:30 | 148 | 986 | 305 | 10 | ||
| 2025-12-03T23:31 | 401 | 955 | 282 | 8 | ||
| 2025-12-03T23:32 | 597 | 931 | 288 | 10 | ||
| 2025-12-03T23:32 | 807 | 906 | -11.7 | -17.5 | ||
| 2025-12-03T23:32 | 932 | 891 | 286 | 12 | ||
| 2025-12-03T23:33 | 938 | 890 | -12.6 | -19.6 | ||
| 2025-12-03T23:33 | 1010 | 882 | -13.2 | -19.9 | ||
| 2025-12-03T23:33 | 1189 | 861 | -14.7 | -21.3 | ||
| 2025-12-03T23:33 | 1301 | 849 | 291 | 16 | ||
| 2025-12-03T23:34 | 1451 | 832 | -17.3 | -20.2 | ||
| 2025-12-03T23:34 | 1673 | 808 | 297 | 16 | ||
| 2025-12-03T23:35 | 1698 | 805 | -19.3 | -21.2 | ||
| 2025-12-03T23:35 | 2028 | 770 | 309 | 17 | ||
| 2025-12-03T23:36 | 2149 | 757 | -22.2 | -25.3 | ||
| 2025-12-03T23:37 | 2387 | 733 | 318 | 16 | ||
| 2025-12-03T23:37 | 2451 | 726 | -24.6 | -28.0 | ||
| 2025-12-03T23:37 | 2644 | 707 | -26.2 | -29.7 | ||
| 2025-12-03T23:37 | 2739 | 698 | 323 | 15 | ||
| 2025-12-03T23:38 | 2859 | 687 | -27.9 | -32.3 | ||
| 2025-12-03T23:38 | 2961 | 677 | -28.8 | -33.5 | ||
| 2025-12-03T23:38 | 3041 | 669 | -29.4 | -34.1 | ||
| 2025-12-03T23:39 | 3101 | 664 | 324 | 18 | ||
| 2025-12-03T23:39 | 3113 | 663 | -29.9 | -36.4 | ||
| 2025-12-03T23:39 | 3276 | 648 | -31.3 | -36.5 | ||
| 2025-12-03T23:39 | 3317 | 644 | -30.2 | -39.2 | ||
| 2025-12-03T23:39 | 3341 | 642 | 314 | 16 | ||
| 2025-12-03T23:40 | 3497 | 628 | -31.0 | -44.3 | ||
| 2025-12-03T23:40 | 3579 | 621 | -31.6 | -45.9 | ||
| 2025-12-03T23:40 | 3623 | 617 | 305 | 14 | ||
| 2025-12-03T23:40 | 3750 | 606 | -32.2 | -49.1 | ||
| 2025-12-03T23:41 | 3870 | 596 | -33.1 | -49.9 | ||
| 2025-12-03T23:41 | 4004 | 584 | 307 | 18 | ||
| 2025-12-03T23:42 | 4286 | 561 | -36.3 | -50.8 | ||
| 2025-12-03T23:42 | 4333 | 557 | 312 | 20 | ||
| 2025-12-03T23:43 | 4580 | 538 | -37.5 | -53.1 | ||
| 2025-12-03T23:43 | 4692 | 529 | 312 | 20 | ||
| 2025-12-03T23:43 | 4772 | 523 | -38.8 | -53.8 | ||
| 2025-12-03T23:43 | 4891 | 514 | 305 | 18 | ||
| 2025-12-03T23:44 | 5027 | 504 | -39.5 | -55.8 | ||
| 2025-12-03T23:44 | 5127 | 497 | -39.7 | -56.5 | ||
| 2025-12-03T23:44 | 5168 | 494 | -40.0 | -56.8 | ||
| 2025-12-03T23:44 | 5284 | 485 | 306 | 23 | ||
| 2025-12-03T23:45 | 5507 | 470 | -41.9 | |||
| 2025-12-03T23:45 | 5629 | 461 | 305 | 22 | ||
| 2025-12-03T23:45 | 5709 | 456 | -42.2 | |||
| 2025-12-03T23:46 | 5900 | 443 | -42.2 | |||
| 2025-12-03T23:46 | 5959 | 439 | 289 | 20 | ||
| 2025-12-03T23:47 | 6216 | 423 | 293 | 22 | ||
| 2025-12-03T23:47 | 6282 | 419 | -44.1 | |||
| 2025-12-03T23:47 | 6468 | 407 | -45.0 | |||
| 2025-12-03T23:48 | 6525 | 404 | 277 | 21 | ||
| 2025-12-03T23:48 | 6751 | 390 | -46.9 | |||
| 2025-12-03T23:49 | 6891 | 382 | 287 | 22 | ||
| 2025-12-03T23:49 | 6962 | 378 | -47.6 | |||
| 2025-12-03T23:49 | 7049 | 373 | -47.0 | |||
| 2025-12-03T23:49 | 7073 | 372 | 296 | 19 | ||
| 2025-12-03T23:49 | 7149 | 367 | -47.2 | |||
| 2025-12-03T23:49 | 7188 | 365 | 288 | 18 | ||
| 2025-12-03T23:50 | 7243 | 362 | -46.9 | |||
| 2025-12-03T23:50 | 7356 | 356 | -47.3 | |||
| 2025-12-03T23:50 | 7408 | 353 | -46.9 | |||
| 2025-12-03T23:50 | 7437 | 352 | 274 | 20 | ||
| 2025-12-03T23:51 | 7663 | 340 | -47.2 | |||
| 2025-12-03T23:51 | 7714 | 337 | 291 | 23 | ||
| 2025-12-03T23:51 | 7735 | 336 | -46.9 | |||
| 2025-12-03T23:52 | 7885 | 329 | -46.6 | |||
| 2025-12-03T23:52 | 8023 | 322 | 288 | 18 | ||
| 2025-12-03T23:52 | 8029 | 322 | -46.2 | |||
| 2025-12-03T23:52 | 8094 | 318 | -45.5 | |||
| 2025-12-03T23:53 | 8183 | 314 | 280 | 22 | ||
| 2025-12-03T23:53 | 8250 | 311 | -45.0 | |||
| 2025-12-03T23:53 | 8350 | 307 | 271 | 29 | ||
| 2025-12-03T23:53 | 8393 | 305 | -44.5 | |||
| 2025-12-03T23:54 | 8550 | 298 | -43.7 | |||
| 2025-12-03T23:54 | 8556 | 297 | 274 | 29 | ||
| 2025-12-03T23:54 | 8830 | 285 | -44.4 | |||
| 2025-12-03T23:55 | 8963 | 280 | 269 | 25 | ||
| 2025-12-03T23:55 | 9252 | 268 | 249 | 24 | ||
| 2025-12-03T23:55 | 9301 | 266 | -44.4 | |||
| 2025-12-03T23:56 | 9594 | 255 | 257 | 27 | ||
| 2025-12-03T23:57 | 9827 | 246 | -44.9 | |||
| 2025-12-03T23:57 | 9881 | 244 | 261 | 27 | ||
| 2025-12-03T23:58 | 10143 | 235 | 259 | 32 | ||
| 2025-12-03T23:59 | 10288 | 230 | -44.1 | |||
| 2025-12-03T23:59 | 10442 | 224 | 265 | 35 | ||
| 2025-12-04T00:00 | 10716 | 215 | -44.9 | |||
| 2025-12-04T00:00 | 10832 | 212 | 259 | 35 | ||
| 2025-12-04T00:01 | 10951 | 208 | -44.1 | |||
| 2025-12-04T00:01 | 11214 | 200 | 258 | 37 | ||
| 2025-12-04T00:02 | 11288 | 198 | -44.6 | |||
| 2025-12-04T00:02 | 11396 | 195 | -44.3 | |||
| 2025-12-04T00:02 | 11529 | 191 | 251 | 35 | ||
| 2025-12-04T00:03 | 11684 | 186 | -45.4 | |||
| 2025-12-04T00:03 | 11715 | 186 | 252 | 37 | ||
| 2025-12-04T00:04 | 11977 | 178 | -44.2 | |||
| 2025-12-04T00:04 | 11987 | 178 | 253 | 36 | ||
| 2025-12-04T00:04 | 12068 | 176 | -43.4 | |||
| 2025-12-04T00:05 | 12186 | 173 | 246 | 31 | ||
| 2025-12-04T00:05 | 12434 | 167 | -44.9 | |||
| 2025-12-04T00:06 | 12551 | 164 | 245 | 37 | ||
| 2025-12-04T00:06 | 12682 | 161 | -46.2 | |||
| 2025-12-04T00:07 | 12922 | 155 | 249 | 40 | ||
| 2025-12-04T00:08 | 13191 | 149 | 251 | 37 | ||
| 2025-12-04T00:08 | 13223 | 148 | -47.8 | |||
| 2025-12-04T00:08 | 13294 | 146 | -47.2 | |||
| 2025-12-04T00:09 | 13404 | 144 | 244 | 33 | ||
| 2025-12-04T00:09 | 13439 | 143 | -46.8 | |||
| 2025-12-04T00:09 | 13561 | 141 | 239 | 35 | ||
| 2025-12-04T00:10 | 13626 | 139 | -46.4 | |||
| 2025-12-04T00:10 | 13788 | 136 | -46.7 | |||
| 2025-12-04T00:10 | 13816 | 135 | 245 | 40 | ||
| 2025-12-04T00:11 | 14137 | 129 | -47.8 | |||
| 2025-12-04T00:11 | 14211 | 128 | 255 | 37 | ||
| 2025-12-04T00:12 | 14495 | 122 | 251 | 31 | ||
| 2025-12-04T00:12 | 14635 | 120 | -48.7 | |||
| 2025-12-04T00:12 | 14671 | 119 | 248 | 34 | ||
| 2025-12-04T00:12 | 14763 | 117 | -47.6 | |||
| 2025-12-04T00:13 | 15073 | 112 | 247 | 33 | ||
| 2025-12-04T00:14 | 15186 | 110 | -48.9 | |||
| 2025-12-04T00:14 | 15343 | 107 | 242 | 34 | ||
| 2025-12-04T00:14 | 15505 | 105 | -50.6 | |||
| 2025-12-04T00:15 | 15537 | 104 | 240 | 39 | ||
| 2025-12-04T00:15 | 15700 | 102 | -50.9 | |||
| 2025-12-04T00:15 | 15843 | 99 | 248 | 31 | ||
| 2025-12-04T00:16 | 15873 | 99 | -51.1 | |||
| 2025-12-04T00:16 | 16050 | 96 | -50.2 | |||
| 2025-12-04T00:16 | 16215 | 94 | 245 | 30 | ||
| 2025-12-04T00:17 | 16434 | 91 | -51.6 | |||
| 2025-12-04T00:17 | 16626 | 88 | 242 | 37 | ||
| 2025-12-04T00:18 | 17024 | 83 | 246 | 30 | ||
| 2025-12-04T00:19 | 17164 | 81 | -54.6 | |||
| 2025-12-04T00:19 | 17300 | 79 | 240 | 26 | ||
| 2025-12-04T00:20 | 17627 | 75 | 251 | 34 | ||
| 2025-12-04T00:20 | 17789 | 74 | 247 | 30 | ||
| 2025-12-04T00:21 | 18150 | 70 | -51.4 | |||
| 2025-12-04T00:22 | 18207 | 69 | 225 | 24 | ||
| 2025-12-04T00:23 | 18663 | 64 | 228 | 23 | ||
| 2025-12-04T00:24 | 19113 | 60 | 216 | 28 | ||
| 2025-12-04T00:24 | 19489 | 56 | -59.6 | |||
| 2025-12-04T00:25 | 19514 | 56 | 221 | 35 | ||
| 2025-12-04T00:25 | 19673 | 55 | -57.7 | |||
| 2025-12-04T00:25 | 19768 | 54 | 226 | 39 | ||
| 2025-12-04T00:26 | 19945 | 52 | -55.6 | 233 | 39 | |
| 2025-12-04T00:26 | 20182 | 51 | 234 | 48 | ||
| 2025-12-04T00:27 | 20207 | 50 | -52.7 | |||
| 2025-12-04T00:27 | 20575 | 48 | 242 | 39 | ||
| 2025-12-04T00:28 | 20602 | 47 | -51.5 | |||
| 2025-12-04T00:28 | 20716 | 47 | 244 | 34 | ||
| 2025-12-04T00:29 | 21062 | 44 | 244 | 34 | ||
| 2025-12-04T00:29 | 21186 | 43 | -45.8 | |||
| 2025-12-04T00:29 | 21249 | 43 | 239 | 27 | ||
| 2025-12-04T00:30 | 21469 | 42 | -46.0 | |||
| 2025-12-04T00:30 | 21679 | 40 | 224 | 28 | ||
| 2025-12-04T00:31 | 22050 | 38 | 223 | 31 | ||
| 2025-12-04T00:31 | 22117 | 38 | -50.8 | |||
| 2025-12-04T00:32 | 22240 | 37 | 228 | 35 | ||
| 2025-12-04T00:33 | 22551 | 35 | 215 | 28 | ||
| 2025-12-04T00:33 | 22587 | 35 | -47.5 | |||
| 2025-12-04T00:33 | 22721 | 34 | 205 | 26 | ||
| 2025-12-04T00:33 | 22818 | 34 | 201 | 28 | ||
| 2025-12-04T00:34 | 22956 | 33 | -47.0 | |||
| 2025-12-04T00:34 | 23179 | 32 | 193 | 26 | ||
| 2025-12-04T00:35 | 23621 | 30 | 182 | 18 | ||
| 2025-12-04T00:36 | 24094 | 28 | 203 | 22 | ||
| 2025-12-04T00:37 | 24335 | 27 | -55.2 | 205 | 23 | |
| 2025-12-04T11:30 | 18 | 1005 | -3.2 | -6.5 | 90 | 1 |
| 2025-12-04T11:30 | 23 | 1004 | -3.2 | -7.0 | 0 | 0 |
| 2025-12-04T11:31 | 345 | 964 | 17 | 3 | ||
| 2025-12-04T11:31 | 362 | 962 | -6.1 | -8.7 | ||
| 2025-12-04T11:31 | 450 | 951 | -6.1 | -10.7 | 349 | 2 |
| 2025-12-04T11:32 | 524 | 942 | 294 | 3 | ||
| 2025-12-04T11:32 | 700 | 921 | 272 | 5 | ||
| 2025-12-04T11:32 | 718 | 919 | -8.6 | -12.6 | ||
| 2025-12-04T11:32 | 768 | 913 | -8.4 | -14.2 | ||
| 2025-12-04T11:33 | 821 | 907 | 273 | 8 | ||
| 2025-12-04T11:33 | 949 | 892 | -9.9 | -14.7 | ||
| 2025-12-04T11:33 | 964 | 890 | 278 | 13 | ||
| 2025-12-04T11:34 | 1069 | 878 | 274 | 14 | ||
| 2025-12-04T11:35 | 1353 | 846 | -13.5 | -16.8 | ||
| 2025-12-04T11:35 | 1369 | 844 | 267 | 16 | ||
| 2025-12-04T11:35 | 1537 | 826 | -14.8 | -18.7 | ||
| 2025-12-04T11:36 | 1658 | 813 | -15.7 | -19.3 | ||
| 2025-12-04T11:36 | 1716 | 807 | 271 | 22 | ||
| 2025-12-04T11:36 | 1803 | 797 | -16.3 | -21.9 | ||
| 2025-12-04T11:37 | 2069 | 770 | -18.6 | -24.3 | ||
| 2025-12-04T11:37 | 2132 | 763 | -18.3 | -28.1 | ||
| 2025-12-04T11:37 | 2139 | 762 | 288 | 23 | ||
| 2025-12-04T11:37 | 2264 | 750 | -19.1 | -29.1 | ||
| 2025-12-04T11:38 | 2496 | 727 | -20.5 | -30.9 | ||
| 2025-12-04T11:38 | 2552 | 721 | 286 | 22 | ||
| 2025-12-04T11:39 | 2950 | 683 | 283 | 24 | ||
| 2025-12-04T11:39 | 3191 | 661 | -25.7 | -34.9 | ||
| 2025-12-04T11:40 | 3340 | 647 | 283 | 24 | ||
| 2025-12-04T11:40 | 3378 | 644 | -26.7 | -38.5 | ||
| 2025-12-04T11:40 | 3552 | 629 | -27.8 | -38.9 | ||
| 2025-12-04T11:41 | 3715 | 615 | 281 | 27 | ||
| 2025-12-04T11:41 | 3901 | 599 | -29.7 | -43.1 | ||
| 2025-12-04T11:42 | 4122 | 580 | 273 | 26 | ||
| 2025-12-04T11:42 | 4190 | 575 | -31.3 | -48.4 | ||
| 2025-12-04T11:43 | 4542 | 547 | -33.0 | -51.5 | 273 | 33 |
| 2025-12-04T11:44 | 4973 | 514 | 276 | 32 | ||
| 2025-12-04T11:44 | 5197 | 498 | -37.8 | -55.5 | ||
| 2025-12-04T11:45 | 5391 | 484 | 276 | 32 | ||
| 2025-12-04T11:45 | 5501 | 476 | -39.4 | -59.5 | ||
| 2025-12-04T11:45 | 5619 | 468 | -40.0 | -60.0 | ||
| 2025-12-04T11:46 | 5810 | 455 | 273 | 32 | ||
| 2025-12-04T11:46 | 5890 | 450 | -42.3 | |||
| 2025-12-04T11:47 | 6244 | 427 | 276 | 32 | ||
| 2025-12-04T11:47 | 6338 | 421 | -44.9 | |||
| 2025-12-04T11:48 | 6625 | 403 | -45.9 | |||
| 2025-12-04T11:48 | 6658 | 401 | 276 | 33 | ||
| 2025-12-04T11:48 | 6848 | 390 | 273 | 33 | ||
| 2025-12-04T11:49 | 7232 | 368 | -47.6 | |||
| 2025-12-04T11:49 | 7245 | 367 | 270 | 36 | ||
| 2025-12-04T11:50 | 7491 | 354 | -49.0 | |||
| 2025-12-04T11:50 | 7665 | 344 | 267 | 35 | ||
| 2025-12-04T11:51 | 7911 | 331 | -52.3 | |||
| 2025-12-04T11:51 | 7982 | 328 | -52.2 | |||
| 2025-12-04T11:51 | 8045 | 325 | 265 | 34 | ||
| 2025-12-04T11:51 | 8077 | 323 | -51.1 | |||
| 2025-12-04T11:51 | 8179 | 318 | 261 | 35 | ||
| 2025-12-04T11:52 | 8438 | 306 | -50.2 | |||
| 2025-12-04T11:52 | 8528 | 301 | 262 | 39 | ||
| 2025-12-04T11:53 | 8819 | 288 | -50.2 | |||
| 2025-12-04T11:53 | 9018 | 280 | 265 | 42 | ||
| 2025-12-04T11:54 | 9217 | 271 | -50.5 | |||
| 2025-12-04T11:54 | 9313 | 267 | 266 | 39 | ||
| 2025-12-04T11:54 | 9456 | 261 | -48.2 | |||
| 2025-12-04T11:55 | 9560 | 257 | -47.0 | |||
| 2025-12-04T11:55 | 9615 | 255 | 265 | 43 | ||
| 2025-12-04T11:55 | 9716 | 251 | -44.4 | |||
| 2025-12-04T11:55 | 9816 | 248 | -43.4 | |||
| 2025-12-04T11:56 | 9928 | 244 | 264 | 43 | ||
| 2025-12-04T11:56 | 10089 | 238 | -42.6 | |||
| 2025-12-04T11:57 | 10244 | 232 | 264 | 42 | ||
| 2025-12-04T11:57 | 10369 | 228 | -43.0 | |||
| 2025-12-04T11:58 | 10683 | 218 | 266 | 42 | ||
| 2025-12-04T11:58 | 10739 | 216 | -44.9 | |||
| 2025-12-04T11:59 | 11055 | 206 | 267 | 39 | ||
| 2025-12-04T11:59 | 11321 | 198 | 265 | 42 | ||
| 2025-12-04T11:59 | 11327 | 198 | -44.5 | |||
| 2025-12-04T12:00 | 11538 | 192 | 261 | 40 | ||
| 2025-12-04T12:01 | 11800 | 184 | -45.7 | |||
| 2025-12-04T12:01 | 11954 | 180 | 265 | 36 | ||
| 2025-12-04T12:01 | 12086 | 176 | -46.7 | |||
| 2025-12-04T12:02 | 12308 | 171 | 256 | 38 | ||
| 2025-12-04T12:02 | 12323 | 170 | -46.2 | |||
| 2025-12-04T12:02 | 12546 | 165 | 254 | 38 | ||
| 2025-12-04T12:02 | 12593 | 163 | -46.8 | |||
| 2025-12-04T12:03 | 12826 | 158 | 251 | 38 | ||
| 2025-12-04T12:03 | 12962 | 155 | -47.9 | |||
| 2025-12-04T12:04 | 13161 | 150 | -48.6 | |||
| 2025-12-04T12:04 | 13240 | 148 | 247 | 42 | ||
| 2025-12-04T12:05 | 13521 | 142 | -50.1 | |||
| 2025-12-04T12:05 | 13572 | 141 | 249 | 40 | ||
| 2025-12-04T12:05 | 13669 | 139 | -50.3 | |||
| 2025-12-04T12:06 | 13933 | 133 | 252 | 40 | ||
| 2025-12-04T12:06 | 14068 | 130 | -51.1 | |||
| 2025-12-04T12:06 | 14134 | 129 | 250 | 37 | ||
| 2025-12-04T12:07 | 14440 | 123 | 253 | 41 | ||
| 2025-12-04T12:07 | 14732 | 118 | -53.0 | |||
| 2025-12-04T12:08 | 14889 | 115 | 260 | 39 | ||
| 2025-12-04T12:09 | 15324 | 107 | 252 | 38 | ||
| 2025-12-04T12:09 | 15625 | 102 | -53.7 | |||
| 2025-12-04T12:10 | 15652 | 102 | 255 | 40 | ||
| 2025-12-04T12:10 | 15769 | 100 | -53.0 | |||
| 2025-12-04T12:10 | 15993 | 97 | -52.1 | |||
| 2025-12-04T12:11 | 16070 | 96 | 256 | 41 | ||
| 2025-12-04T12:11 | 16317 | 92 | 257 | 45 | ||
| 2025-12-04T12:12 | 16645 | 87 | 266 | 40 | ||
| 2025-12-04T12:12 | 16761 | 86 | -55.8 | |||
| 2025-12-04T12:13 | 16897 | 84 | 264 | 37 | ||
| 2025-12-04T12:13 | 17123 | 81 | 254 | 33 | ||
| 2025-12-04T12:14 | 17331 | 79 | -53.5 | 245 | 34 | |
| 2025-12-04T12:14 | 17566 | 76 | 240 | 43 | ||
| 2025-12-04T12:15 | 17707 | 74 | -51.0 | |||
| 2025-12-04T12:15 | 17844 | 73 | 245 | 39 | ||
| 2025-12-04T12:15 | 17928 | 72 | -50.7 | |||
| 2025-12-04T12:15 | 18058 | 70 | 242 | 36 | ||
| 2025-12-04T12:16 | 18188 | 69 | -49.8 | |||
| 2025-12-04T12:16 | 18324 | 67 | 236 | 34 | ||
| 2025-12-04T12:16 | 18472 | 66 | 238 | 32 | ||
| 2025-12-04T12:17 | 18582 | 65 | -47.3 | |||
| 2025-12-04T12:17 | 18725 | 63 | 239 | 28 | ||
| 2025-12-04T12:18 | 19078 | 60 | 239 | 27 | ||
| 2025-12-04T12:19 | 19261 | 59 | -46.2 | |||
| 2025-12-04T12:19 | 19316 | 58 | 241 | 29 | ||
| 2025-12-04T12:19 | 19406 | 57 | -45.5 | |||
| 2025-12-04T12:19 | 19441 | 57 | 233 | 29 | ||
| 2025-12-04T12:19 | 19585 | 56 | 221 | 25 | ||
| 2025-12-04T12:20 | 19632 | 55 | -45.3 | |||
| 2025-12-04T12:20 | 19829 | 54 | -43.6 | |||
| 2025-12-04T12:20 | 19930 | 53 | 208 | 19 | ||
| 2025-12-04T12:21 | 20319 | 50 | 194 | 19 | ||
| 2025-12-04T12:22 | 20494 | 49 | -47.3 | |||
| 2025-12-04T12:22 | 20734 | 47 | 196 | 20 | ||
| 2025-12-04T12:23 | 20998 | 45 | -52.0 | 195 | 21 | |
| 2025-12-05T00:38 | 18 | 1007 | -1.8 | -5.5 | 160 | 2 |
| 2025-12-05T00:38 | 23 | 1006 | -1.7 | -6.1 | 0 | 0 |
| 2025-12-05T00:39 | 241 | 979 | -4.1 | -7.5 | ||
| 2025-12-05T00:39 | 374 | 962 | 340 | 1 | ||
| 2025-12-05T00:39 | 462 | 952 | -6.1 | -8.8 | ||
| 2025-12-05T00:39 | 535 | 943 | 298 | 4 | ||
| 2025-12-05T00:40 | 755 | 916 | 311 | 8 | ||
| 2025-12-05T00:41 | 1008 | 887 | 284 | 8 | ||
| 2025-12-05T00:41 | 1046 | 882 | -10.6 | -12.2 | ||
| 2025-12-05T00:41 | 1288 | 855 | 293 | 12 | ||
| 2025-12-05T00:41 | 1294 | 854 | -12.7 | -13.6 | ||
| 2025-12-05T00:42 | 1481 | 834 | 277 | 13 | ||
| 2025-12-05T00:42 | 1624 | 818 | 286 | 21 | ||
| 2025-12-05T00:43 | 1796 | 800 | -16.8 | -18.1 | ||
| 2025-12-05T00:43 | 1995 | 779 | 284 | 19 | ||
| 2025-12-05T00:43 | 2015 | 777 | -18.4 | -20.0 | ||
| 2025-12-05T00:43 | 2089 | 769 | -18.8 | -22.4 | ||
| 2025-12-05T00:44 | 2156 | 762 | -19.2 | -27.7 | ||
| 2025-12-05T00:44 | 2263 | 751 | -19.3 | -33.2 | ||
| 2025-12-05T00:44 | 2398 | 738 | 308 | 19 | ||
| 2025-12-05T00:44 | 2431 | 734 | -19.3 | -34.4 | ||
| 2025-12-05T00:45 | 2632 | 715 | -20.4 | -34.6 | ||
| 2025-12-05T00:45 | 2800 | 698 | 308 | 21 | ||
| 2025-12-05T00:46 | 3194 | 662 | 314 | 23 | ||
| 2025-12-05T00:46 | 3200 | 661 | -24.6 | -39.0 | ||
| 2025-12-05T00:47 | 3430 | 641 | -26.1 | -45.7 | ||
| 2025-12-05T00:47 | 3589 | 627 | 304 | 26 | ||
| 2025-12-05T00:48 | 3972 | 594 | 306 | 27 | ||
| 2025-12-05T00:48 | 4036 | 589 | -30.0 | -48.4 | ||
| 2025-12-05T00:49 | 4234 | 573 | -30.3 | -48.0 | ||
| 2025-12-05T00:49 | 4356 | 563 | 303 | 25 | ||
| 2025-12-05T00:50 | 4698 | 536 | -32.6 | -48.5 | ||
| 2025-12-05T00:50 | 4736 | 533 | 296 | 24 | ||
| 2025-12-05T00:51 | 5061 | 509 | -35.0 | -51.0 | ||
| 2025-12-05T00:51 | 5119 | 505 | 295 | 23 | ||
| 2025-12-05T00:51 | 5183 | 500 | -35.4 | -51.8 | ||
| 2025-12-05T00:52 | 5511 | 477 | 293 | 23 | ||
| 2025-12-05T00:53 | 5739 | 462 | -40.0 | -51.9 | ||
| 2025-12-05T00:53 | 5917 | 450 | 288 | 23 | ||
| 2025-12-05T00:54 | 6321 | 423 | 282 | 24 | ||
| 2025-12-05T00:54 | 6363 | 421 | -44.0 | |||
| 2025-12-05T00:55 | 6667 | 402 | -46.0 | |||
| 2025-12-05T00:55 | 6735 | 398 | 276 | 25 | ||
| 2025-12-05T00:56 | 7162 | 373 | 274 | 29 | ||
| 2025-12-05T00:57 | 7464 | 356 | -52.3 | |||
| 2025-12-05T00:57 | 7606 | 348 | 280 | 27 | ||
| 2025-12-05T00:58 | 7835 | 336 | -54.0 | |||
| 2025-12-05T00:58 | 8064 | 324 | 279 | 31 | ||
| 2025-12-05T00:58 | 8086 | 323 | -54.0 | |||
| 2025-12-05T00:59 | 8354 | 310 | -53.7 | |||
| 2025-12-05T00:59 | 8484 | 304 | 279 | 32 | ||
| 2025-12-05T00:59 | 8530 | 301 | -52.1 | |||
| 2025-12-05T01:00 | 8624 | 297 | -51.1 | |||
| 2025-12-05T01:00 | 8672 | 295 | 274 | 33 | ||
| 2025-12-05T01:01 | 8844 | 287 | -49.6 | |||
| 2025-12-05T01:01 | 8908 | 285 | 276 | 30 | ||
| 2025-12-05T01:01 | 8940 | 283 | -47.6 | |||
| 2025-12-05T01:02 | 9191 | 273 | 270 | 31 | ||
| 2025-12-05T01:02 | 9196 | 272 | -45.7 | |||
| 2025-12-05T01:03 | 9570 | 258 | -45.6 | |||
| 2025-12-05T01:03 | 9585 | 257 | 266 | 32 | ||
| 2025-12-05T01:04 | 10048 | 240 | 268 | 32 | ||
| 2025-12-05T01:04 | 10115 | 237 | -46.7 | |||
| 2025-12-05T01:05 | 10289 | 231 | -46.4 | |||
| 2025-12-05T01:05 | 10390 | 228 | 269 | 35 | ||
| 2025-12-05T01:06 | 10666 | 218 | -45.1 | |||
| 2025-12-05T01:06 | 10696 | 217 | 265 | 31 | ||
| 2025-12-05T01:07 | 10979 | 208 | -45.5 | |||
| 2025-12-05T01:07 | 10995 | 208 | 262 | 33 | ||
| 2025-12-05T01:08 | 11327 | 198 | 261 | 35 | ||
| 2025-12-05T01:09 | 11643 | 189 | -45.7 | |||
| 2025-12-05T01:09 | 11670 | 188 | 256 | 30 | ||
| 2025-12-05T01:09 | 11975 | 179 | -48.0 | |||
| 2025-12-05T01:10 | 12064 | 177 | 255 | 34 | ||
| 2025-12-05T01:10 | 12201 | 173 | -48.5 | |||
| 2025-12-05T01:11 | 12452 | 167 | -49.5 | 265 | 34 | |
| 2025-12-05T01:11 | 12671 | 161 | -49.5 | |||
| 2025-12-05T01:12 | 12857 | 157 | 257 | 38 | ||
| 2025-12-05T01:12 | 13020 | 153 | -50.9 | |||
| 2025-12-05T01:13 | 13228 | 148 | -50.5 | |||
| 2025-12-05T01:13 | 13279 | 147 | 259 | 38 | ||
| 2025-12-05T01:13 | 13555 | 141 | -51.9 | |||
| 2025-12-05T01:14 | 13700 | 138 | 256 | 37 | ||
| 2025-12-05T01:15 | 14086 | 130 | 250 | 37 | ||
| 2025-12-05T01:15 | 14193 | 128 | -53.4 | |||
| 2025-12-05T01:15 | 14288 | 126 | 254 | 40 | ||
| 2025-12-05T01:16 | 14431 | 123 | -53.3 | |||
| 2025-12-05T01:16 | 14649 | 119 | 258 | 41 | ||
| 2025-12-05T01:17 | 14836 | 115 | -54.8 | |||
| 2025-12-05T01:17 | 14881 | 115 | 265 | 43 | ||
| 2025-12-05T01:17 | 15040 | 112 | -53.9 | |||
| 2025-12-05T01:18 | 15293 | 108 | 263 | 40 | ||
| 2025-12-05T01:18 | 15457 | 105 | -53.4 | |||
| 2025-12-05T01:19 | 15689 | 101 | -50.9 | |||
| 2025-12-05T01:19 | 15725 | 101 | 257 | 39 | ||
| 2025-12-05T01:19 | 15988 | 97 | -50.9 | |||
| 2025-12-05T01:20 | 16146 | 94 | 252 | 42 | ||
| 2025-12-05T01:20 | 16399 | 91 | -52.3 | |||
| 2025-12-05T01:21 | 16544 | 89 | 252 | 43 | ||
| 2025-12-05T01:22 | 16862 | 84 | -51.9 | |||
| 2025-12-05T01:22 | 16880 | 84 | 269 | 37 | ||
| 2025-12-05T01:22 | 17090 | 81 | -51.8 | |||
| 2025-12-05T01:22 | 17097 | 81 | 258 | 38 | ||
| 2025-12-05T01:23 | 17323 | 79 | -52.4 | 255 | 41 | |
| 2025-12-05T01:24 | 17626 | 75 | 264 | 34 | ||
| 2025-12-05T01:24 | 17643 | 75 | -51.2 | |||
| 2025-12-05T01:25 | 18139 | 69 | 262 | 31 | ||
| 2025-12-05T01:25 | 18311 | 67 | -54.3 | |||
| 2025-12-05T01:26 | 18666 | 64 | 269 | 31 | ||
| 2025-12-05T01:26 | 18725 | 63 | -52.2 | |||
| 2025-12-05T01:26 | 18985 | 61 | 261 | 19 | ||
| 2025-12-05T01:27 | 19161 | 59 | -52.0 | |||
| 2025-12-05T01:27 | 19225 | 59 | 244 | 15 | ||
| 2025-12-05T01:27 | 19428 | 57 | 226 | 14 | ||
| 2025-12-05T01:27 | 19505 | 56 | -54.0 | |||
| 2025-12-05T01:28 | 19552 | 56 | 200 | 15 | ||
| 2025-12-05T01:28 | 19761 | 54 | -54.7 | |||
| 2025-12-05T01:28 | 19833 | 53 | 192 | 20 | ||
| 2025-12-05T01:28 | 19907 | 53 | -53.9 | |||
| 2025-12-05T01:29 | 20105 | 51 | -53.7 | |||
| 2025-12-05T01:29 | 20168 | 51 | 204 | 27 | ||
| 2025-12-05T01:30 | 20324 | 49 | -53.1 | |||
| 2025-12-05T01:30 | 20400 | 49 | -51.1 | |||
| 2025-12-05T01:30 | 20548 | 48 | 223 | 31 | ||
| 2025-12-05T01:31 | 20898 | 45 | -53.6 | |||
| 2025-12-05T01:31 | 20954 | 45 | 231 | 26 | ||
| 2025-12-05T01:32 | 21357 | 42 | 234 | 26 | ||
| 2025-12-05T01:33 | 21558 | 41 | -54.0 | |||
| 2025-12-05T01:33 | 21717 | 40 | 226 | 35 | ||
| 2025-12-05T01:34 | 21879 | 39 | -53.7 | |||
| 2025-12-05T01:34 | 22050 | 38 | 236 | 40 | ||
| 2025-12-05T01:34 | 22080 | 38 | -51.3 | 237 | 40 | |
| 2025-12-05T11:30 | 18 | 1008 | -1.1 | -3.3 | 140 | 2 |
| 2025-12-05T11:30 | 22 | 1007 | -0.8 | -3.8 | 0 | 0 |
| 2025-12-05T11:30 | 42 | 1005 | -1.0 | -4.0 | ||
| 2025-12-05T11:30 | 62 | 1002 | 150 | 3 | ||
| 2025-12-05T11:31 | 184 | 987 | -2.8 | -4.8 | ||
| 2025-12-05T11:31 | 224 | 982 | 170 | 3 | ||
| 2025-12-05T11:31 | 258 | 978 | -2.8 | -5.8 | ||
| 2025-12-05T11:31 | 286 | 974 | -2.4 | -6.2 | ||
| 2025-12-05T11:31 | 303 | 972 | 259 | 4 | ||
| 2025-12-05T11:31 | 417 | 958 | 303 | 7 | ||
| 2025-12-05T11:32 | 534 | 944 | -3.9 | -7.3 | ||
| 2025-12-05T11:32 | 761 | 917 | 282 | 13 | ||
| 2025-12-05T11:32 | 786 | 914 | -5.5 | -8.9 | ||
| 2025-12-05T11:33 | 996 | 890 | 283 | 15 | ||
| 2025-12-05T11:33 | 1023 | 887 | -7.4 | -10.3 | ||
| 2025-12-05T11:33 | 1215 | 865 | 281 | 18 | ||
| 2025-12-05T11:34 | 1271 | 859 | -9.4 | -11.6 | ||
| 2025-12-05T11:34 | 1399 | 845 | 283 | 21 | ||
| 2025-12-05T11:34 | 1436 | 841 | -10.3 | -13.2 | ||
| 2025-12-05T11:35 | 1772 | 805 | 281 | 23 | ||
| 2025-12-05T11:35 | 1791 | 803 | -13.2 | -15.3 | ||
| 2025-12-05T11:35 | 2008 | 780 | -15.1 | -16.1 | ||
| 2025-12-05T11:36 | 2171 | 763 | 279 | 23 | ||
| 2025-12-05T11:37 | 2561 | 725 | 274 | 23 | ||
| 2025-12-05T11:38 | 2860 | 696 | 282 | 26 | ||
| 2025-12-05T11:38 | 3010 | 682 | 288 | 27 | ||
| 2025-12-05T11:38 | 3029 | 680 | -22.1 | -23.9 | ||
| 2025-12-05T11:39 | 3193 | 665 | -23.2 | -25.8 | ||
| 2025-12-05T11:39 | 3417 | 645 | 291 | 30 | ||
| 2025-12-05T11:40 | 3693 | 621 | -27.4 | -28.9 | ||
| 2025-12-05T11:40 | 3742 | 617 | 293 | 31 | ||
| 2025-12-05T11:40 | 3763 | 615 | -26.9 | -31.5 | ||
| 2025-12-05T11:40 | 3886 | 605 | -27.4 | -33.2 | ||
| 2025-12-05T11:41 | 4136 | 584 | 295 | 35 | ||
| 2025-12-05T11:41 | 4142 | 583 | -27.4 | -37.2 | ||
| 2025-12-05T11:42 | 4363 | 566 | -28.3 | -41.2 | ||
| 2025-12-05T11:42 | 4452 | 559 | -27.9 | -44.0 | ||
| 2025-12-05T11:42 | 4480 | 557 | 297 | 37 | ||
| 2025-12-05T11:43 | 4802 | 532 | -28.2 | -46.3 | 305 | 40 |
| 2025-12-05T11:44 | 5144 | 507 | 301 | 42 | ||
| 2025-12-05T11:44 | 5320 | 495 | -31.1 | -50.5 | ||
| 2025-12-05T11:45 | 5493 | 483 | 303 | 43 | ||
| 2025-12-05T11:45 | 5657 | 472 | -33.1 | -53.6 | ||
| 2025-12-05T11:46 | 5847 | 459 | 304 | 42 | ||
| 2025-12-05T11:46 | 5972 | 451 | -34.6 | -54.8 | ||
| 2025-12-05T11:47 | 6238 | 434 | 303 | 44 | ||
| 2025-12-05T11:47 | 6392 | 424 | 304 | 42 | ||
| 2025-12-05T11:48 | 6757 | 402 | -40.0 | -60.8 | ||
| 2025-12-05T11:48 | 6770 | 402 | 306 | 41 | ||
| 2025-12-05T11:49 | 7179 | 378 | 304 | 40 | ||
| 2025-12-05T11:49 | 7264 | 373 | -43.6 | |||
| 2025-12-05T11:50 | 7544 | 358 | 301 | 42 | ||
| 2025-12-05T11:51 | 7656 | 352 | -45.4 | |||
| 2025-12-05T11:51 | 7702 | 350 | 302 | 38 | ||
| 2025-12-05T11:51 | 7807 | 344 | -46.1 | |||
| 2025-12-05T11:52 | 8058 | 331 | 298 | 38 | ||
| 2025-12-05T11:52 | 8373 | 316 | -49.0 | |||
| 2025-12-05T11:53 | 8440 | 313 | 302 | 36 | ||
| 2025-12-05T11:53 | 8647 | 303 | 299 | 36 | ||
| 2025-12-05T11:53 | 8719 | 300 | -51.0 | |||
| 2025-12-05T11:54 | 9054 | 284 | 296 | 36 | ||
| 2025-12-05T11:55 | 9269 | 275 | -54.5 | |||
| 2025-12-05T11:55 | 9505 | 265 | 295 | 35 | ||
| 2025-12-05T11:55 | 9513 | 265 | -54.7 | |||
| 2025-12-05T11:56 | 9704 | 257 | -54.5 | |||
| 2025-12-05T11:56 | 9852 | 251 | -54.2 | |||
| 2025-12-05T11:56 | 9950 | 247 | 279 | 33 | ||
| 2025-12-05T11:57 | 10199 | 238 | 284 | 35 | ||
| 2025-12-05T11:57 | 10310 | 234 | -54.2 | |||
| 2025-12-05T11:57 | 10366 | 232 | 281 | 38 | ||
| 2025-12-05T11:58 | 10587 | 224 | -54.1 | |||
| 2025-12-05T11:58 | 10676 | 221 | 282 | 39 | ||
| 2025-12-05T11:59 | 10829 | 216 | -54.4 | |||
| 2025-12-05T11:59 | 10976 | 211 | 278 | 41 | ||
| 2025-12-05T12:00 | 11075 | 207 | -54.4 | |||
| 2025-12-05T12:00 | 11288 | 201 | 273 | 41 | ||
| 2025-12-05T12:00 | 11310 | 200 | -53.7 | |||
| 2025-12-05T12:01 | 11408 | 197 | -52.7 | |||
| 2025-12-05T12:01 | 11558 | 192 | -53.6 | |||
| 2025-12-05T12:01 | 11635 | 190 | 267 | 46 | ||
| 2025-12-05T12:01 | 11675 | 189 | -52.3 | |||
| 2025-12-05T12:02 | 12017 | 179 | 260 | 48 | ||
| 2025-12-05T12:02 | 12051 | 178 | -53.7 | |||
| 2025-12-05T12:03 | 12403 | 169 | 259 | 51 | ||
| 2025-12-05T12:03 | 12468 | 167 | -53.2 | |||
| 2025-12-05T12:04 | 12615 | 163 | -52.8 | |||
| 2025-12-05T12:04 | 12689 | 161 | 261 | 54 | ||
| 2025-12-05T12:05 | 12774 | 159 | -52.4 | |||
| 2025-12-05T12:05 | 12934 | 155 | 259 | 51 | ||
| 2025-12-05T12:05 | 13074 | 152 | -51.3 | |||
| 2025-12-05T12:06 | 13354 | 146 | 260 | 51 | ||
| 2025-12-05T12:06 | 13449 | 144 | -48.8 | |||
| 2025-12-05T12:07 | 13736 | 138 | 266 | 49 | ||
| 2025-12-05T12:07 | 13839 | 135 | -49.4 | |||
| 2025-12-05T12:07 | 13877 | 135 | 261 | 44 | ||
| 2025-12-05T12:08 | 14117 | 130 | -48.6 | |||
| 2025-12-05T12:08 | 14285 | 126 | 260 | 43 | ||
| 2025-12-05T12:08 | 14411 | 124 | -49.4 | |||
| 2025-12-05T12:09 | 14491 | 123 | 258 | 44 | ||
| 2025-12-05T12:09 | 14738 | 118 | 259 | 46 | ||
| 2025-12-05T12:09 | 14784 | 117 | -51.3 | |||
| 2025-12-05T12:10 | 14982 | 114 | -50.8 | |||
| 2025-12-05T12:10 | 15176 | 110 | 263 | 40 | ||
| 2025-12-05T12:10 | 15184 | 110 | -50.8 | |||
| 2025-12-05T12:11 | 15414 | 106 | -52.0 | |||
| 2025-12-05T12:11 | 15554 | 104 | 270 | 37 | ||
| 2025-12-05T12:12 | 15847 | 99 | -52.3 | |||
| 2025-12-05T12:12 | 15894 | 99 | 284 | 31 | ||
| 2025-12-05T12:13 | 16182 | 94 | -54.0 | |||
| 2025-12-05T12:13 | 16293 | 93 | 278 | 31 | ||
| 2025-12-05T12:13 | 16489 | 90 | -53.8 | |||
| 2025-12-05T12:14 | 16662 | 88 | 275 | 36 | ||
| 2025-12-05T12:14 | 16735 | 87 | -55.1 | |||
| 2025-12-05T12:15 | 16982 | 83 | 279 | 33 | ||
| 2025-12-05T12:16 | 17373 | 78 | 267 | 31 | ||
| 2025-12-05T12:16 | 17389 | 78 | -56.6 | |||
| 2025-12-05T12:16 | 17608 | 76 | 254 | 26 | ||
| 2025-12-05T12:16 | 17631 | 75 | -54.0 | |||
| 2025-12-05T12:17 | 18053 | 70 | 260 | 27 | ||
| 2025-12-05T12:18 | 18199 | 69 | -55.9 | |||
| 2025-12-05T12:18 | 18455 | 66 | 261 | 35 | ||
| 2025-12-05T12:19 | 18581 | 65 | -56.8 | |||
| 2025-12-05T12:19 | 18849 | 62 | -57.0 | |||
| 2025-12-05T12:19 | 18859 | 62 | 248 | 36 | ||
| 2025-12-05T12:20 | 19026 | 60 | -53.8 | |||
| 2025-12-05T12:20 | 19122 | 60 | 232 | 35 | ||
| 2025-12-05T12:20 | 19221 | 59 | -51.9 | |||
| 2025-12-05T12:21 | 19290 | 58 | -48.8 | |||
| 2025-12-05T12:21 | 19370 | 57 | 225 | 27 | ||
| 2025-12-05T12:21 | 19553 | 56 | -49.0 | |||
| 2025-12-05T12:22 | 19744 | 54 | 201 | 27 | ||
| 2025-12-05T12:22 | 19877 | 53 | -51.7 | 197 | 28 | |
| 2025-12-05T23:30 | 18 | 1015 | 1.5 | -2.8 | 140 | 2 |
| 2025-12-05T23:30 | 23 | 1014 | 1.7 | -3.4 | 0 | 0 |
| 2025-12-05T23:30 | 88 | 1006 | 120 | 3 | ||
| 2025-12-05T23:30 | 115 | 1002 | 1.1 | -4.3 | ||
| 2025-12-05T23:31 | 177 | 995 | 2.1 | -6.0 | ||
| 2025-12-05T23:31 | 246 | 986 | 95 | 5 | ||
| 2025-12-05T23:31 | 484 | 957 | 93 | 2 | ||
| 2025-12-05T23:32 | 613 | 942 | -1.5 | -7.0 | ||
| 2025-12-05T23:32 | 814 | 918 | 269 | 3 | ||
| 2025-12-05T23:33 | 991 | 898 | 293 | 7 | ||
| 2025-12-05T23:33 | 1071 | 889 | -5.4 | -8.1 | ||
| 2025-12-05T23:33 | 1137 | 881 | 275 | 9 | ||
| 2025-12-05T23:33 | 1300 | 863 | 267 | 11 | ||
| 2025-12-05T23:34 | 1435 | 848 | -8.6 | -9.4 | ||
| 2025-12-05T23:34 | 1492 | 842 | 264 | 12 | ||
| 2025-12-05T23:34 | 1633 | 827 | -9.7 | -10.8 | ||
| 2025-12-05T23:34 | 1685 | 821 | -9.0 | -12.0 | ||
| 2025-12-05T23:35 | 1777 | 812 | -8.7 | -13.0 | ||
| 2025-12-05T23:35 | 1816 | 807 | -7.9 | -13.3 | ||
| 2025-12-05T23:35 | 1832 | 806 | 278 | 16 | ||
| 2025-12-05T23:35 | 1856 | 803 | -7.7 | -14.1 | ||
| 2025-12-05T23:35 | 1897 | 799 | -6.9 | -13.6 | ||
| 2025-12-05T23:35 | 2105 | 778 | -8.2 | -13.4 | ||
| 2025-12-05T23:35 | 2151 | 773 | -7.6 | -14.0 | ||
| 2025-12-05T23:36 | 2300 | 759 | 284 | 21 | ||
| 2025-12-05T23:36 | 2507 | 739 | -10.0 | -17.8 | ||
| 2025-12-05T23:37 | 2710 | 719 | 279 | 23 | ||
| 2025-12-05T23:37 | 3050 | 688 | -13.7 | -23.6 | ||
| 2025-12-05T23:38 | 3109 | 683 | 281 | 23 | ||
| 2025-12-05T23:38 | 3213 | 673 | -14.4 | -24.8 | ||
| 2025-12-05T23:39 | 3499 | 648 | 278 | 24 | ||
| 2025-12-05T23:39 | 3836 | 620 | -19.1 | -29.1 | ||
| 2025-12-05T23:40 | 3896 | 615 | 284 | 22 | ||
| 2025-12-05T23:40 | 4181 | 592 | 285 | 24 | ||
| 2025-12-05T23:41 | 4365 | 577 | -22.9 | -36.1 | ||
| 2025-12-05T23:41 | 4462 | 569 | -23.7 | -31.9 | ||
| 2025-12-05T23:41 | 4597 | 559 | 281 | 23 | ||
| 2025-12-05T23:42 | 4756 | 547 | -26.0 | -35.9 | ||
| 2025-12-05T23:42 | 4984 | 530 | -27.8 | -34.6 | ||
| 2025-12-05T23:42 | 5027 | 527 | 281 | 23 | ||
| 2025-12-05T23:43 | 5161 | 517 | -28.5 | -38.9 | ||
| 2025-12-05T23:43 | 5251 | 510 | -29.0 | -40.2 | ||
| 2025-12-05T23:43 | 5359 | 503 | 279 | 25 | ||
| 2025-12-05T23:44 | 5648 | 483 | -31.3 | -43.2 | ||
| 2025-12-05T23:44 | 5752 | 475 | 280 | 25 | ||
| 2025-12-05T23:45 | 6120 | 451 | 286 | 24 | ||
| 2025-12-05T23:45 | 6211 | 445 | -36.1 | -46.6 | ||
| 2025-12-05T23:46 | 6349 | 437 | 279 | 22 | ||
| 2025-12-05T23:46 | 6474 | 429 | 277 | 24 | ||
| 2025-12-05T23:46 | 6514 | 426 | -37.8 | -51.7 | ||
| 2025-12-05T23:47 | 6821 | 408 | -40.0 | -52.9 | 284 | 23 |
| 2025-12-05T23:48 | 7184 | 386 | 281 | 23 | ||
| 2025-12-05T23:49 | 7463 | 371 | 280 | 23 | ||
| 2025-12-05T23:49 | 7481 | 370 | -45.3 | |||
| 2025-12-05T23:49 | 7574 | 364 | 280 | 24 | ||
| 2025-12-05T23:49 | 7678 | 359 | 285 | 28 | ||
| 2025-12-05T23:50 | 7812 | 352 | 280 | 26 | ||
| 2025-12-05T23:50 | 7871 | 349 | -47.9 | |||
| 2025-12-05T23:51 | 8148 | 334 | 283 | 24 | ||
| 2025-12-05T23:52 | 8420 | 320 | -50.9 | |||
| 2025-12-05T23:52 | 8475 | 318 | 283 | 25 | ||
| 2025-12-05T23:52 | 8619 | 311 | -51.5 | |||
| 2025-12-05T23:53 | 8772 | 304 | 283 | 25 | ||
| 2025-12-05T23:53 | 8854 | 300 | -52.0 | |||
| 2025-12-05T23:54 | 9169 | 285 | 280 | 28 | ||
| 2025-12-05T23:54 | 9353 | 277 | -54.1 | |||
| 2025-12-05T23:55 | 9623 | 266 | 272 | 30 | ||
| 2025-12-05T23:55 | 9631 | 266 | -54.3 | |||
| 2025-12-05T23:55 | 9787 | 259 | -54.0 | |||
| 2025-12-05T23:56 | 10080 | 248 | -55.4 | |||
| 2025-12-05T23:56 | 10087 | 247 | 271 | 36 | ||
| 2025-12-05T23:56 | 10211 | 243 | -54.7 | |||
| 2025-12-05T23:56 | 10392 | 236 | 268 | 37 | ||
| 2025-12-05T23:57 | 10466 | 233 | -53.7 | |||
| 2025-12-05T23:57 | 10588 | 229 | -51.7 | |||
| 2025-12-05T23:57 | 10690 | 225 | 271 | 40 | ||
| 2025-12-05T23:58 | 10789 | 222 | -49.5 | |||
| 2025-12-05T23:58 | 10863 | 219 | -49.0 | |||
| 2025-12-05T23:58 | 11013 | 214 | 270 | 39 | ||
| 2025-12-05T23:59 | 11350 | 204 | 265 | 39 | ||
| 2025-12-06T00:00 | 11434 | 201 | -51.4 | |||
| 2025-12-06T00:00 | 11574 | 197 | -50.2 | |||
| 2025-12-06T00:00 | 11725 | 192 | 266 | 41 | ||
| 2025-12-06T00:01 | 11903 | 187 | -50.9 | |||
| 2025-12-06T00:01 | 12073 | 182 | 268 | 40 | ||
| 2025-12-06T00:02 | 12156 | 180 | -51.6 | |||
| 2025-12-06T00:02 | 12360 | 174 | 268 | 43 | ||
| 2025-12-06T00:03 | 12428 | 172 | -52.5 | |||
| 2025-12-06T00:03 | 12535 | 170 | -51.4 | |||
| 2025-12-06T00:03 | 12645 | 167 | 270 | 43 | ||
| 2025-12-06T00:03 | 12708 | 165 | -51.8 | |||
| 2025-12-06T00:04 | 12993 | 158 | 270 | 42 | ||
| 2025-12-06T00:05 | 13175 | 154 | -52.4 | |||
| 2025-12-06T00:05 | 13364 | 149 | 271 | 42 | ||
| 2025-12-06T00:06 | 13513 | 146 | -52.9 | |||
| 2025-12-06T00:06 | 13669 | 142 | 272 | 37 | ||
| 2025-12-06T00:07 | 13824 | 139 | 266 | 40 | ||
| 2025-12-06T00:07 | 14063 | 134 | 259 | 36 | ||
| 2025-12-06T00:08 | 14233 | 130 | -54.8 | |||
| 2025-12-06T00:08 | 14415 | 127 | 263 | 43 | ||
| 2025-12-06T00:09 | 14612 | 123 | 266 | 42 | ||
| 2025-12-06T00:10 | 14942 | 117 | 267 | 42 | ||
| 2025-12-06T00:10 | 14955 | 116 | -55.4 | |||
| 2025-12-06T00:10 | 15218 | 112 | -56.1 | |||
| 2025-12-06T00:11 | 15326 | 110 | 263 | 45 | ||
| 2025-12-06T00:12 | 15746 | 103 | 271 | 44 | ||
| 2025-12-06T00:12 | 15866 | 101 | -57.1 | |||
| 2025-12-06T00:12 | 16029 | 98 | 271 | 43 | ||
| 2025-12-06T00:13 | 16419 | 92 | 268 | 42 | ||
| 2025-12-06T00:14 | 16593 | 90 | -55.2 | |||
| 2025-12-06T00:14 | 16811 | 87 | 272 | 43 | ||
| 2025-12-06T00:15 | 17189 | 82 | 268 | 40 | ||
| 2025-12-06T00:16 | 17307 | 80 | -55.0 | |||
| 2025-12-06T00:16 | 17535 | 78 | 264 | 36 | ||
| 2025-12-06T00:17 | 17644 | 76 | -52.5 | |||
| 2025-12-06T00:17 | 17748 | 75 | 271 | 36 | ||
| 2025-12-06T00:17 | 17782 | 75 | -50.2 | |||
| 2025-12-06T00:18 | 18098 | 71 | -50.0 | |||
| 2025-12-06T00:18 | 18255 | 69 | 284 | 11 | ||
| 2025-12-06T00:18 | 18425 | 68 | -50.5 | |||
| 2025-12-06T00:18 | 18442 | 67 | 236 | 4 | ||
| 2025-12-06T00:19 | 18640 | 65 | -51.1 | |||
| 2025-12-06T00:19 | 18712 | 65 | 215 | 10 | ||
| 2025-12-06T00:20 | 19144 | 61 | 245 | 11 | ||
| 2025-12-06T00:21 | 19361 | 59 | -55.0 | |||
| 2025-12-06T00:21 | 19449 | 58 | 251 | 16 | ||
| 2025-12-06T00:21 | 19741 | 55 | 248 | 16 | ||
| 2025-12-06T00:22 | 19998 | 53 | -57.2 | |||
| 2025-12-06T00:22 | 20181 | 51 | 218 | 16 | ||
| 2025-12-06T00:23 | 20428 | 49 | -59.8 | 209 | 19 | |
| 2025-12-06T00:24 | 20621 | 48 | 208 | 23 | ||
| 2025-12-06T00:24 | 20687 | 47 | -59.3 | |||
| 2025-12-06T00:24 | 20835 | 46 | 226 | 28 | ||
| 2025-12-06T00:25 | 20932 | 46 | -57.9 | |||
| 2025-12-06T00:25 | 21224 | 44 | 238 | 32 | ||
| 2025-12-06T00:26 | 21566 | 41 | -60.3 | |||
| 2025-12-06T00:26 | 21745 | 40 | 252 | 33 | ||
| 2025-12-06T00:26 | 21799 | 40 | -55.0 | |||
| 2025-12-06T00:27 | 21913 | 39 | 264 | 32 | ||
| 2025-12-06T00:27 | 22102 | 38 | -48.1 | |||
| 2025-12-06T00:27 | 22204 | 37 | 261 | 16 | ||
| 2025-12-06T00:28 | 22567 | 35 | 219 | 16 | ||
| 2025-12-06T00:29 | 22771 | 34 | 215 | 24 | ||
| 2025-12-06T00:29 | 22871 | 34 | -49.3 | |||
| 2025-12-06T00:29 | 22921 | 33 | -48.9 | 221 | 20 | |
| 2025-12-06T11:30 | 18 | 1013 | 4.8 | -0.2 | 170 | 3 |
| 2025-12-06T11:30 | 24 | 1012 | 4.9 | -0.7 | 0 | 0 |
| 2025-12-06T11:30 | 77 | 1006 | 170 | 3 | ||
| 2025-12-06T11:30 | 94 | 1004 | 5.1 | -0.7 | ||
| 2025-12-06T11:31 | 230 | 987 | 164 | 10 | ||
| 2025-12-06T11:31 | 393 | 967 | 2.9 | -1.3 | ||
| 2025-12-06T11:31 | 467 | 958 | 3.1 | -1.6 | ||
| 2025-12-06T11:31 | 494 | 955 | 169 | 13 | ||
| 2025-12-06T11:31 | 501 | 955 | 3.2 | -1.7 | ||
| 2025-12-06T11:32 | 628 | 940 | 196 | 7 | ||
| 2025-12-06T11:32 | 800 | 920 | 199 | 10 | ||
| 2025-12-06T11:32 | 899 | 909 | 0.8 | -2.8 | ||
| 2025-12-06T11:33 | 1026 | 894 | 214 | 11 | ||
| 2025-12-06T11:33 | 1133 | 882 | -1.3 | -3.2 | ||
| 2025-12-06T11:33 | 1273 | 867 | 223 | 16 | ||
| 2025-12-06T11:34 | 1469 | 846 | -3.2 | -5.1 | ||
| 2025-12-06T11:34 | 1510 | 841 | 233 | 17 | ||
| 2025-12-06T11:34 | 1671 | 824 | -3.8 | -7.4 | ||
| 2025-12-06T11:35 | 1727 | 819 | -3.3 | -9.5 | ||
| 2025-12-06T11:35 | 1796 | 812 | 241 | 19 | ||
| 2025-12-06T11:35 | 1808 | 810 | -3.4 | -11.6 | ||
| 2025-12-06T11:36 | 2140 | 777 | -5.9 | -14.4 | ||
| 2025-12-06T11:36 | 2181 | 773 | 245 | 16 | ||
| 2025-12-06T11:37 | 2548 | 737 | -9.5 | -16.2 | ||
| 2025-12-06T11:37 | 2607 | 732 | 241 | 17 | ||
| 2025-12-06T11:37 | 2775 | 716 | -11.3 | -19.0 | ||
| 2025-12-06T11:37 | 2875 | 707 | -12.2 | -16.4 | ||
| 2025-12-06T11:38 | 2959 | 699 | -13.0 | -16.7 | ||
| 2025-12-06T11:38 | 2975 | 697 | 249 | 18 | ||
| 2025-12-06T11:38 | 3012 | 694 | -12.9 | -23.4 | ||
| 2025-12-06T11:38 | 3194 | 678 | -13.9 | -28.1 | ||
| 2025-12-06T11:38 | 3276 | 670 | -14.6 | -28.7 | ||
| 2025-12-06T11:39 | 3394 | 660 | 250 | 20 | ||
| 2025-12-06T11:39 | 3407 | 659 | -15.7 | -33.1 | ||
| 2025-12-06T11:39 | 3516 | 649 | -16.7 | -31.3 | ||
| 2025-12-06T11:39 | 3561 | 645 | 251 | 20 | ||
| 2025-12-06T11:39 | 3631 | 639 | -17.7 | -25.8 | ||
| 2025-12-06T11:39 | 3728 | 631 | -18.3 | -33.9 | ||
| 2025-12-06T11:40 | 3880 | 618 | 244 | 22 | ||
| 2025-12-06T11:40 | 4002 | 608 | -20.2 | -34.4 | ||
| 2025-12-06T11:40 | 4015 | 607 | 243 | 22 | ||
| 2025-12-06T11:41 | 4401 | 576 | 242 | 24 | ||
| 2025-12-06T11:42 | 4627 | 559 | 238 | 22 | ||
| 2025-12-06T11:42 | 4646 | 557 | -25.3 | -38.9 | ||
| 2025-12-06T11:42 | 4714 | 552 | -25.9 | -37.8 | ||
| 2025-12-06T11:42 | 4845 | 542 | -26.7 | -29.7 | ||
| 2025-12-06T11:43 | 4996 | 531 | -27.9 | -30.7 | ||
| 2025-12-06T11:43 | 5002 | 530 | 246 | 22 | ||
| 2025-12-06T11:43 | 5176 | 517 | 241 | 19 | ||
| 2025-12-06T11:43 | 5189 | 517 | -29.3 | -32.7 | ||
| 2025-12-06T11:44 | 5309 | 508 | -30.2 | -31.9 | ||
| 2025-12-06T11:44 | 5328 | 507 | 247 | 20 | ||
| 2025-12-06T11:44 | 5471 | 496 | -31.2 | -34.3 | ||
| 2025-12-06T11:44 | 5567 | 490 | -31.4 | -35.8 | ||
| 2025-12-06T11:45 | 5665 | 483 | 252 | 21 | ||
| 2025-12-06T11:45 | 5732 | 478 | -32.4 | -36.0 | ||
| 2025-12-06T11:45 | 5904 | 467 | -33.3 | -37.3 | ||
| 2025-12-06T11:46 | 6027 | 459 | 253 | 21 | ||
| 2025-12-06T11:46 | 6051 | 457 | -34.3 | -38.1 | ||
| 2025-12-06T11:46 | 6285 | 442 | -36.3 | -39.0 | ||
| 2025-12-06T11:47 | 6410 | 434 | 254 | 20 | ||
| 2025-12-06T11:47 | 6535 | 427 | -38.5 | -41.9 | ||
| 2025-12-06T11:47 | 6710 | 416 | -40.0 | -43.0 | ||
| 2025-12-06T11:48 | 6799 | 410 | 252 | 21 | ||
| 2025-12-06T11:48 | 7123 | 391 | 249 | 22 | ||
| 2025-12-06T11:49 | 7202 | 387 | -44.0 | |||
| 2025-12-06T11:49 | 7353 | 378 | -44.1 | |||
| 2025-12-06T11:49 | 7487 | 370 | 248 | 22 | ||
| 2025-12-06T11:50 | 7537 | 368 | -44.7 | |||
| 2025-12-06T11:50 | 7869 | 350 | -46.7 | |||
| 2025-12-06T11:50 | 7876 | 349 | 254 | 25 | ||
| 2025-12-06T11:51 | 8281 | 329 | 255 | 21 | ||
| 2025-12-06T11:52 | 8598 | 313 | -51.5 | |||
| 2025-12-06T11:52 | 8704 | 308 | 257 | 22 | ||
| 2025-12-06T11:53 | 8880 | 300 | -53.4 | |||
| 2025-12-06T11:53 | 9037 | 292 | 267 | 23 | ||
| 2025-12-06T11:54 | 9280 | 281 | -54.2 | |||
| 2025-12-06T11:54 | 9416 | 276 | 251 | 21 | ||
| 2025-12-06T11:55 | 9685 | 264 | -53.9 | |||
| 2025-12-06T11:55 | 9722 | 263 | 243 | 24 | ||
| 2025-12-06T11:55 | 9864 | 257 | 254 | 25 | ||
| 2025-12-06T11:56 | 10038 | 250 | -53.3 | |||
| 2025-12-06T11:56 | 10090 | 248 | 259 | 32 | ||
| 2025-12-06T11:56 | 10266 | 241 | -52.7 | 255 | 32 | |
| 2025-12-06T11:57 | 10446 | 235 | -53.3 | |||
| 2025-12-06T11:57 | 10512 | 232 | 250 | 28 | ||
| 2025-12-06T11:57 | 10593 | 229 | -52.2 | |||
| 2025-12-06T11:57 | 10715 | 225 | -50.4 | |||
| 2025-12-06T11:58 | 10756 | 224 | 256 | 33 | ||
| 2025-12-06T11:58 | 10870 | 220 | -49.2 | |||
| 2025-12-06T11:58 | 10984 | 216 | -48.9 | |||
| 2025-12-06T11:58 | 11026 | 215 | 251 | 32 | ||
| 2025-12-06T11:59 | 11209 | 209 | -47.5 | |||
| 2025-12-06T11:59 | 11318 | 205 | 258 | 38 | ||
| 2025-12-06T11:59 | 11439 | 202 | -47.8 | |||
| 2025-12-06T12:00 | 11652 | 195 | -47.8 | |||
| 2025-12-06T12:00 | 11707 | 194 | 256 | 37 | ||
| 2025-12-06T12:00 | 11874 | 189 | 257 | 34 | ||
| 2025-12-06T12:01 | 11941 | 187 | -48.7 | |||
| 2025-12-06T12:01 | 12008 | 185 | 255 | 38 | ||
| 2025-12-06T12:01 | 12091 | 183 | -49.3 | |||
| 2025-12-06T12:02 | 12329 | 176 | -49.7 | |||
| 2025-12-06T12:02 | 12354 | 175 | 254 | 35 | ||
| 2025-12-06T12:02 | 12643 | 168 | 254 | 41 | ||
| 2025-12-06T12:03 | 12773 | 165 | -51.9 | |||
| 2025-12-06T12:03 | 13021 | 158 | -51.3 | |||
| 2025-12-06T12:03 | 13027 | 158 | 256 | 39 | ||
| 2025-12-06T12:04 | 13168 | 155 | -52.1 | |||
| 2025-12-06T12:04 | 13345 | 151 | 255 | 44 | ||
| 2025-12-06T12:05 | 13653 | 144 | 258 | 39 | ||
| 2025-12-06T12:06 | 13841 | 139 | 259 | 42 | ||
| 2025-12-06T12:06 | 13921 | 138 | -52.1 | |||
| 2025-12-06T12:06 | 14134 | 133 | -52.6 | |||
| 2025-12-06T12:07 | 14207 | 132 | 262 | 41 | ||
| 2025-12-06T12:07 | 14505 | 126 | 258 | 42 | ||
| 2025-12-06T12:08 | 14657 | 123 | 261 | 45 | ||
| 2025-12-06T12:08 | 14729 | 122 | -51.5 | |||
| 2025-12-06T12:09 | 15022 | 116 | 264 | 41 | ||
| 2025-12-06T12:09 | 15097 | 115 | -52.3 | |||
| 2025-12-06T12:10 | 15401 | 110 | 264 | 38 | ||
| 2025-12-06T12:11 | 15659 | 105 | -52.6 | |||
| 2025-12-06T12:11 | 15800 | 103 | 265 | 39 | ||
| 2025-12-06T12:12 | 16111 | 98 | 263 | 36 | ||
| 2025-12-06T12:12 | 16275 | 96 | -54.1 | |||
| 2025-12-06T12:13 | 16503 | 92 | 262 | 34 | ||
| 2025-12-06T12:13 | 16522 | 92 | -53.8 | |||
| 2025-12-06T12:14 | 16897 | 87 | 259 | 42 | ||
| 2025-12-06T12:14 | 17088 | 84 | -55.0 | |||
| 2025-12-06T12:15 | 17294 | 82 | 257 | 38 | ||
| 2025-12-06T12:16 | 17717 | 76 | 255 | 36 | ||
| 2025-12-06T12:16 | 17876 | 74 | -57.9 | |||
| 2025-12-06T12:16 | 18007 | 73 | 257 | 36 | ||
| 2025-12-06T12:17 | 18113 | 72 | -57.8 | |||
| 2025-12-06T12:17 | 18327 | 69 | 264 | 35 | ||
| 2025-12-06T12:18 | 18495 | 68 | -57.1 | |||
| 2025-12-06T12:18 | 18557 | 67 | 262 | 33 | ||
| 2025-12-06T12:18 | 18674 | 66 | 262 | 27 | ||
| 2025-12-06T12:18 | 18840 | 64 | 258 | 24 | ||
| 2025-12-06T12:19 | 19186 | 61 | -57.4 | |||
| 2025-12-06T12:19 | 19260 | 60 | 261 | 30 | ||
| 2025-12-06T12:20 | 19432 | 58 | -55.7 | |||
| 2025-12-06T12:20 | 19464 | 58 | 259 | 24 | ||
| 2025-12-06T12:21 | 19872 | 54 | 242 | 23 | ||
| 2025-12-06T12:21 | 19885 | 54 | -56.4 | |||
| 2025-12-06T12:22 | 20195 | 52 | -56.6 | |||
| 2025-12-06T12:22 | 20232 | 51 | 261 | 25 | ||
| 2025-12-06T12:22 | 20296 | 51 | -55.3 | |||
| 2025-12-06T12:22 | 20461 | 50 | -55.2 | 268 | 23 | |
| 2025-12-06T12:23 | 20836 | 47 | -56.1 | 282 | 21 | |
| 2025-12-06T23:30 | 18 | 1011 | 5.5 | 2.3 | 170 | 3 |
| 2025-12-06T23:30 | 24 | 1010 | 5.7 | 1.8 | 188 | 1 |
| 2025-12-06T23:30 | 80 | 1003 | 6.2 | 1.1 | ||
| 2025-12-06T23:30 | 114 | 999 | 180 | 3 | ||
| 2025-12-06T23:30 | 168 | 993 | 6.7 | 0.6 | ||
| 2025-12-06T23:31 | 222 | 986 | 216 | 7 | ||
| 2025-12-06T23:32 | 559 | 947 | 216 | 4 | ||
| 2025-12-06T23:32 | 779 | 921 | 1.5 | -2.1 | ||
| 2025-12-06T23:32 | 859 | 912 | 242 | 7 | ||
| 2025-12-06T23:33 | 1222 | 872 | 248 | 11 | ||
| 2025-12-06T23:34 | 1456 | 847 | -3.7 | -5.9 | ||
| 2025-12-06T23:34 | 1516 | 840 | -4.1 | -6.4 | ||
| 2025-12-06T23:34 | 1585 | 833 | 256 | 14 | ||
| 2025-12-06T23:35 | 1753 | 815 | -5.4 | -8.8 | ||
| 2025-12-06T23:35 | 1985 | 792 | 267 | 17 | ||
| 2025-12-06T23:36 | 2116 | 778 | -7.8 | -11.8 | ||
| 2025-12-06T23:36 | 2409 | 749 | 261 | 18 | ||
| 2025-12-06T23:37 | 2778 | 714 | -13.2 | -14.2 | ||
| 2025-12-06T23:37 | 2853 | 707 | 253 | 17 | ||
| 2025-12-06T23:38 | 3138 | 681 | -15.6 | -16.1 | ||
| 2025-12-06T23:38 | 3300 | 667 | 257 | 19 | ||
| 2025-12-06T23:39 | 3567 | 643 | -18.2 | -19.1 | 255 | 22 |
| 2025-12-06T23:39 | 3671 | 634 | -18.6 | -20.2 | ||
| 2025-12-06T23:40 | 3839 | 620 | -19.9 | -24.6 | ||
| 2025-12-06T23:40 | 3965 | 610 | 256 | 16 | ||
| 2025-12-06T23:40 | 4037 | 604 | -21.6 | -27.9 | ||
| 2025-12-06T23:41 | 4351 | 579 | 242 | 18 | ||
| 2025-12-06T23:42 | 4543 | 564 | -24.7 | -26.8 | ||
| 2025-12-06T23:42 | 4689 | 552 | -25.6 | -26.6 | ||
| 2025-12-06T23:42 | 4720 | 550 | 230 | 17 | ||
| 2025-12-06T23:43 | 5067 | 524 | 233 | 19 | ||
| 2025-12-06T23:43 | 5155 | 518 | -29.3 | -30.3 | ||
| 2025-12-06T23:44 | 5244 | 511 | -30.2 | -32.0 | ||
| 2025-12-06T23:44 | 5426 | 498 | 229 | 18 | ||
| 2025-12-06T23:44 | 5577 | 488 | -33.2 | -35.7 | ||
| 2025-12-06T23:45 | 5812 | 472 | 229 | 18 | ||
| 2025-12-06T23:45 | 5885 | 467 | -36.0 | -38.6 | ||
| 2025-12-06T23:46 | 6034 | 457 | -37.3 | -39.9 | ||
| 2025-12-06T23:46 | 6109 | 452 | -37.3 | -44.9 | ||
| 2025-12-06T23:46 | 6186 | 447 | 238 | 21 | ||
| 2025-12-06T23:46 | 6332 | 438 | -38.7 | -49.5 | ||
| 2025-12-06T23:47 | 6506 | 427 | -40.0 | -51.3 | ||
| 2025-12-06T23:47 | 6604 | 421 | 241 | 21 | ||
| 2025-12-06T23:48 | 6853 | 405 | 247 | 26 | ||
| 2025-12-06T23:48 | 7000 | 397 | -42.9 | |||
| 2025-12-06T23:48 | 7118 | 390 | -42.7 | |||
| 2025-12-06T23:48 | 7181 | 386 | 252 | 29 | ||
| 2025-12-06T23:49 | 7309 | 379 | 257 | 31 | ||
| 2025-12-06T23:50 | 7682 | 358 | 255 | 32 | ||
| 2025-12-06T23:50 | 7853 | 349 | -46.6 | |||
| 2025-12-06T23:51 | 8048 | 339 | 257 | 32 | ||
| 2025-12-06T23:51 | 8294 | 327 | -48.8 | |||
| 2025-12-06T23:52 | 8426 | 320 | 258 | 32 | ||
| 2025-12-06T23:52 | 8551 | 314 | -49.7 | |||
| 2025-12-06T23:52 | 8723 | 306 | 257 | 35 | ||
| 2025-12-06T23:53 | 8910 | 297 | -50.6 | |||
| 2025-12-06T23:53 | 8968 | 295 | 260 | 35 | ||
| 2025-12-06T23:53 | 9128 | 287 | -50.9 | |||
| 2025-12-06T23:53 | 9143 | 287 | 259 | 35 | ||
| 2025-12-06T23:54 | 9317 | 279 | 255 | 36 | ||
| 2025-12-06T23:54 | 9381 | 276 | -50.4 | |||
| 2025-12-06T23:54 | 9607 | 267 | 257 | 41 | ||
| 2025-12-06T23:55 | 9786 | 260 | -50.3 | |||
| 2025-12-06T23:55 | 9812 | 259 | 264 | 41 | ||
| 2025-12-06T23:55 | 9875 | 256 | -49.2 | |||
| 2025-12-06T23:56 | 10008 | 251 | 267 | 43 | ||
| 2025-12-06T23:56 | 10331 | 239 | 258 | 37 | ||
| 2025-12-06T23:57 | 10349 | 238 | -49.9 | |||
| 2025-12-06T23:57 | 10491 | 233 | -48.2 | |||
| 2025-12-06T23:57 | 10575 | 230 | 266 | 41 | ||
| 2025-12-06T23:57 | 10622 | 229 | -48.6 | |||
| 2025-12-06T23:58 | 10837 | 221 | -48.6 | |||
| 2025-12-06T23:58 | 10858 | 221 | 261 | 37 | ||
| 2025-12-06T23:58 | 10987 | 216 | -47.9 | |||
| 2025-12-06T23:58 | 11124 | 212 | -46.2 | |||
| 2025-12-06T23:59 | 11268 | 207 | 262 | 41 | ||
| 2025-12-06T23:59 | 11523 | 200 | -45.6 | |||
| 2025-12-07T00:00 | 11680 | 195 | 266 | 41 | ||
| 2025-12-07T00:01 | 12073 | 184 | 272 | 42 | ||
| 2025-12-07T00:02 | 12328 | 177 | 268 | 41 | ||
| 2025-12-07T00:02 | 12675 | 167 | -50.8 | |||
| 2025-12-07T00:03 | 12695 | 167 | 270 | 38 | ||
| 2025-12-07T00:04 | 13083 | 157 | 266 | 39 | ||
| 2025-12-07T00:04 | 13199 | 154 | -51.6 | |||
| 2025-12-07T00:05 | 13473 | 148 | 263 | 41 | ||
| 2025-12-07T00:05 | 13512 | 147 | -51.9 | |||
| 2025-12-07T00:05 | 13816 | 140 | 261 | 42 | ||
| 2025-12-07T00:06 | 13916 | 138 | -52.3 | |||
| 2025-12-07T00:06 | 14225 | 132 | 263 | 44 | ||
| 2025-12-07T00:07 | 14440 | 127 | -53.4 | |||
| 2025-12-07T00:07 | 14662 | 123 | 255 | 45 | ||
| 2025-12-07T00:08 | 14966 | 117 | -54.2 | |||
| 2025-12-07T00:08 | 15081 | 115 | 257 | 43 | ||
| 2025-12-07T00:09 | 15422 | 109 | 258 | 44 | ||
| 2025-12-07T00:10 | 15550 | 107 | -54.7 | |||
| 2025-12-07T00:10 | 15668 | 105 | -54.1 | |||
| 2025-12-07T00:10 | 15796 | 103 | 267 | 44 | ||
| 2025-12-07T00:10 | 15802 | 103 | -54.0 | |||
| 2025-12-07T00:11 | 16135 | 98 | 262 | 46 | ||
| 2025-12-07T00:12 | 16357 | 94 | 265 | 43 | ||
| 2025-12-07T00:12 | 16559 | 92 | 266 | 41 | ||
| 2025-12-07T00:13 | 16952 | 86 | -56.8 | |||
| 2025-12-07T00:13 | 16958 | 86 | 260 | 41 | ||
| 2025-12-07T00:14 | 17263 | 82 | -57.0 | |||
| 2025-12-07T00:14 | 17357 | 81 | 265 | 41 | ||
| 2025-12-07T00:15 | 17711 | 76 | 268 | 40 | ||
| 2025-12-07T00:16 | 17988 | 73 | -54.7 | |||
| 2025-12-07T00:16 | 18050 | 72 | 268 | 37 | ||
| 2025-12-07T00:17 | 18292 | 70 | 267 | 36 | ||
| 2025-12-07T00:18 | 18515 | 67 | -56.0 | |||
| 2025-12-07T00:18 | 18571 | 67 | 268 | 34 | ||
| 2025-12-07T00:19 | 18942 | 63 | 257 | 27 | ||
| 2025-12-07T00:19 | 18953 | 63 | -57.2 | |||
| 2025-12-07T00:19 | 19262 | 60 | 249 | 30 | ||
| 2025-12-07T00:20 | 19430 | 58 | -60.0 | |||
| 2025-12-07T00:20 | 19604 | 57 | 256 | 30 | ||
| 2025-12-07T00:21 | 19840 | 55 | 260 | 36 | ||
| 2025-12-07T00:21 | 19895 | 54 | -61.1 | |||
| 2025-12-07T00:21 | 20020 | 53 | 269 | 38 | ||
| 2025-12-07T00:22 | 20142 | 52 | 270 | 37 | ||
| 2025-12-07T00:22 | 20247 | 51 | -59.5 | |||
| 2025-12-07T00:22 | 20300 | 51 | 273 | 32 | ||
| 2025-12-07T00:22 | 20472 | 49 | 274 | 31 | ||
| 2025-12-07T00:23 | 20765 | 47 | 265 | 24 | ||
| 2025-12-07T00:24 | 21039 | 45 | -55.9 | |||
| 2025-12-07T00:24 | 21051 | 45 | 243 | 30 | ||
| 2025-12-07T00:24 | 21135 | 44 | -53.5 | |||
| 2025-12-07T00:24 | 21296 | 43 | 249 | 30 | ||
| 2025-12-07T00:25 | 21511 | 42 | -55.0 | |||
| 2025-12-07T00:25 | 21679 | 41 | 279 | 27 | ||
| 2025-12-07T00:26 | 21887 | 39 | 276 | 20 | ||
| 2025-12-07T00:26 | 22126 | 38 | -50.8 | |||
| 2025-12-07T00:26 | 22278 | 37 | 274 | 15 | ||
| 2025-12-07T00:28 | 22768 | 34 | 251 | 10 | ||
| 2025-12-07T00:28 | 22847 | 34 | -53.3 | 238 | 10 | |
| 2025-12-07T11:30 | 18 | 1009 | 5.5 | 1.0 | 270 | 2 |
| 2025-12-07T11:30 | 23 | 1008 | 5.0 | 0.6 | 0 | 0 |
| 2025-12-07T11:30 | 55 | 1004 | 5.8 | 0.1 | ||
| 2025-12-07T11:30 | 162 | 991 | 5.6 | -1.1 | ||
| 2025-12-07T11:31 | 192 | 988 | 238 | 2 | ||
| 2025-12-07T11:32 | 550 | 945 | 253 | 5 | ||
| 2025-12-07T11:32 | 599 | 939 | 2.2 | -3.9 | ||
| 2025-12-07T11:32 | 812 | 915 | 294 | 5 | ||
| 2025-12-07T11:33 | 1146 | 877 | -2.1 | -7.2 | ||
| 2025-12-07T11:33 | 1157 | 876 | 273 | 9 | ||
| 2025-12-07T11:34 | 1405 | 849 | -4.1 | -9.9 | ||
| 2025-12-07T11:34 | 1523 | 836 | 266 | 12 | ||
| 2025-12-07T11:35 | 1885 | 799 | 270 | 10 | ||
| 2025-12-07T11:36 | 2105 | 776 | -9.8 | -12.1 | ||
| 2025-12-07T11:36 | 2252 | 762 | 272 | 10 | ||
| 2025-12-07T11:36 | 2326 | 755 | -11.5 | -14.3 | ||
| 2025-12-07T11:37 | 2400 | 747 | -11.8 | -15.3 | ||
| 2025-12-07T11:37 | 2579 | 730 | -12.7 | -17.7 | ||
| 2025-12-07T11:37 | 2634 | 725 | 251 | 14 | ||
| 2025-12-07T11:37 | 2710 | 717 | -13.8 | -19.9 | ||
| 2025-12-07T11:38 | 2938 | 696 | 247 | 15 | ||
| 2025-12-07T11:38 | 3082 | 683 | -16.6 | -21.3 | ||
| 2025-12-07T11:39 | 3343 | 660 | 249 | 18 | ||
| 2025-12-07T11:39 | 3444 | 651 | -18.6 | -24.8 | ||
| 2025-12-07T11:40 | 3558 | 641 | -19.3 | -26.3 | ||
| 2025-12-07T11:40 | 3750 | 625 | 238 | 17 | ||
| 2025-12-07T11:40 | 3838 | 617 | -21.5 | -30.8 | ||
| 2025-12-07T11:41 | 4056 | 599 | -22.3 | -37.8 | ||
| 2025-12-07T11:41 | 4157 | 591 | 249 | 17 | ||
| 2025-12-07T11:42 | 4457 | 567 | 251 | 22 | ||
| 2025-12-07T11:42 | 4589 | 557 | -26.3 | -42.6 | ||
| 2025-12-07T11:43 | 4774 | 543 | 239 | 27 | ||
| 2025-12-07T11:43 | 4880 | 535 | -27.6 | -46.4 | ||
| 2025-12-07T11:44 | 5176 | 513 | 239 | 23 | ||
| 2025-12-07T11:44 | 5300 | 504 | -31.1 | -51.2 | ||
| 2025-12-07T11:44 | 5411 | 496 | 242 | 27 | ||
| 2025-12-07T11:44 | 5545 | 487 | -32.3 | -55.6 | ||
| 2025-12-07T11:45 | 5837 | 467 | 245 | 31 | ||
| 2025-12-07T11:45 | 5924 | 461 | -35.0 | -57.7 | ||
| 2025-12-07T11:46 | 6240 | 441 | -37.2 | -59.5 | ||
| 2025-12-07T11:46 | 6277 | 439 | 250 | 34 | ||
| 2025-12-07T11:46 | 6439 | 428 | -38.0 | -60.1 | ||
| 2025-12-07T11:47 | 6483 | 426 | 250 | 39 | ||
| 2025-12-07T11:47 | 6578 | 420 | -38.4 | -60.4 | ||
| 2025-12-07T11:48 | 6911 | 400 | -39.8 | -63.7 | ||
| 2025-12-07T11:48 | 6918 | 399 | 256 | 38 | ||
| 2025-12-07T11:48 | 6967 | 397 | -40.0 | -65.3 | ||
| 2025-12-07T11:48 | 7205 | 383 | 261 | 44 | ||
| 2025-12-07T11:48 | 7291 | 378 | -41.3 | |||
| 2025-12-07T11:49 | 7377 | 373 | 262 | 41 | ||
| 2025-12-07T11:49 | 7646 | 359 | -43.8 | |||
| 2025-12-07T11:50 | 7770 | 352 | 261 | 42 | ||
| 2025-12-07T11:50 | 7919 | 344 | -44.8 | |||
| 2025-12-07T11:51 | 8175 | 331 | 262 | 46 | ||
| 2025-12-07T11:51 | 8262 | 327 | -45.6 | |||
| 2025-12-07T11:52 | 8595 | 311 | 259 | 48 | ||
| 2025-12-07T11:52 | 8778 | 303 | 259 | 48 | ||
| 2025-12-07T11:52 | 8894 | 297 | -48.9 | |||
| 2025-12-07T11:53 | 9184 | 284 | 259 | 48 | ||
| 2025-12-07T11:54 | 9519 | 270 | -52.2 | |||
| 2025-12-07T11:54 | 9579 | 268 | 255 | 48 | ||
| 2025-12-07T11:55 | 9849 | 257 | -51.6 | |||
| 2025-12-07T11:55 | 9971 | 252 | 257 | 51 | ||
| 2025-12-07T11:55 | 10073 | 248 | -49.6 | |||
| 2025-12-07T11:56 | 10162 | 245 | -46.9 | |||
| 2025-12-07T11:56 | 10232 | 242 | 262 | 52 | ||
| 2025-12-07T11:56 | 10355 | 238 | -46.5 | |||
| 2025-12-07T11:57 | 10591 | 229 | 262 | 50 | ||
| 2025-12-07T11:57 | 10765 | 224 | -44.5 | |||
| 2025-12-07T11:58 | 10950 | 217 | 268 | 52 | ||
| 2025-12-07T11:58 | 11074 | 213 | -44.8 | |||
| 2025-12-07T11:59 | 11241 | 208 | -43.8 | |||
| 2025-12-07T11:59 | 11270 | 207 | 265 | 46 | ||
| 2025-12-07T11:59 | 11482 | 201 | 260 | 42 | ||
| 2025-12-07T12:00 | 11571 | 198 | -42.8 | |||
| 2025-12-07T12:00 | 11855 | 190 | -43.2 | |||
| 2025-12-07T12:00 | 11892 | 189 | 256 | 44 | ||
| 2025-12-07T12:01 | 12342 | 177 | 261 | 44 | ||
| 2025-12-07T12:02 | 12586 | 170 | -45.9 | |||
| 2025-12-07T12:02 | 12779 | 166 | 264 | 38 | ||
| 2025-12-07T12:03 | 12967 | 161 | -47.6 | |||
| 2025-12-07T12:03 | 13174 | 156 | 259 | 39 | ||
| 2025-12-07T12:04 | 13512 | 148 | 257 | 40 | ||
| 2025-12-07T12:05 | 13812 | 141 | -50.2 | |||
| 2025-12-07T12:05 | 13874 | 140 | 257 | 42 | ||
| 2025-12-07T12:06 | 14037 | 137 | -51.0 | |||
| 2025-12-07T12:06 | 14258 | 132 | 254 | 46 | ||
| 2025-12-07T12:06 | 14284 | 132 | -51.3 | |||
| 2025-12-07T12:07 | 14662 | 124 | 255 | 48 | ||
| 2025-12-07T12:08 | 15068 | 117 | 254 | 50 | ||
| 2025-12-07T12:08 | 15185 | 114 | -52.8 | |||
| 2025-12-07T12:09 | 15363 | 111 | 252 | 50 | ||
| 2025-12-07T12:09 | 15520 | 109 | 257 | 50 | ||
| 2025-12-07T12:10 | 15753 | 105 | 259 | 47 | ||
| 2025-12-07T12:10 | 15852 | 103 | -54.4 | |||
| 2025-12-07T12:11 | 16000 | 101 | 254 | 49 | ||
| 2025-12-07T12:11 | 16166 | 98 | -54.4 | |||
| 2025-12-07T12:12 | 16317 | 96 | 249 | 49 | ||
| 2025-12-07T12:12 | 16392 | 95 | -54.9 | |||
| 2025-12-07T12:12 | 16540 | 93 | 249 | 50 | ||
| 2025-12-07T12:13 | 16813 | 89 | -53.2 | |||
| 2025-12-07T12:13 | 16840 | 88 | 257 | 48 | ||
| 2025-12-07T12:14 | 17081 | 85 | -53.1 | |||
| 2025-12-07T12:14 | 17179 | 84 | 254 | 43 | ||
| 2025-12-07T12:15 | 17551 | 79 | 251 | 47 | ||
| 2025-12-07T12:15 | 17799 | 76 | -56.4 | |||
| 2025-12-07T12:15 | 17874 | 75 | 258 | 44 | ||
| 2025-12-07T12:16 | 18220 | 71 | 264 | 47 | ||
| 2025-12-07T12:16 | 18255 | 71 | -58.3 | |||
| 2025-12-07T12:17 | 18453 | 69 | -56.8 | |||
| 2025-12-07T12:17 | 18546 | 68 | -54.3 | |||
| 2025-12-07T12:17 | 18568 | 67 | -54.4 | 271 | 38 | |
| 2025-12-07T23:30 | 18 | 1009 | 2.3 | -0.1 | 240 | 1 |
| 2025-12-07T23:30 | 22 | 1008 | 2.2 | -0.4 | 0 | 0 |
| 2025-12-07T23:30 | 40 | 1006 | 1.9 | -0.7 | ||
| 2025-12-07T23:30 | 90 | 1000 | 2.1 | -1.7 | ||
| 2025-12-07T23:30 | 123 | 996 | 3.5 | -3.1 | ||
| 2025-12-07T23:31 | 356 | 967 | 231 | 1 | ||
| 2025-12-07T23:31 | 369 | 966 | 1.9 | -4.0 | ||
| 2025-12-07T23:32 | 551 | 944 | 0.9 | -4.9 | ||
| 2025-12-07T23:32 | 720 | 925 | 244 | 2 | ||
| 2025-12-07T23:33 | 960 | 897 | 230 | 3 | ||
| 2025-12-07T23:33 | 1121 | 879 | 228 | 3 | ||
| 2025-12-07T23:34 | 1359 | 853 | -6.3 | -7.4 | ||
| 2025-12-07T23:34 | 1430 | 845 | 224 | 7 | ||
| 2025-12-07T23:35 | 1697 | 817 | -8.5 | -10.3 | ||
| 2025-12-07T23:35 | 1745 | 812 | 233 | 9 | ||
| 2025-12-07T23:35 | 1999 | 785 | -10.7 | -12.2 | ||
| 2025-12-07T23:36 | 2153 | 770 | 220 | 10 | ||
| 2025-12-07T23:36 | 2186 | 767 | -11.8 | -13.7 | ||
| 2025-12-07T23:37 | 2544 | 731 | 216 | 11 | ||
| 2025-12-07T23:37 | 2758 | 711 | -15.8 | -17.3 | ||
| 2025-12-07T23:38 | 2918 | 696 | 224 | 12 | ||
| 2025-12-07T23:39 | 3285 | 662 | 232 | 14 | ||
| 2025-12-07T23:39 | 3481 | 645 | -20.3 | -22.7 | ||
| 2025-12-07T23:40 | 3672 | 629 | 244 | 24 | ||
| 2025-12-07T23:40 | 3706 | 626 | -21.2 | -23.9 | ||
| 2025-12-07T23:41 | 4077 | 595 | 239 | 31 | ||
| 2025-12-07T23:41 | 4351 | 573 | -25.7 | -28.1 | ||
| 2025-12-07T23:42 | 4502 | 561 | 248 | 33 | ||
| 2025-12-07T23:43 | 4927 | 529 | 246 | 38 | ||
| 2025-12-07T23:43 | 5172 | 511 | -31.9 | -34.2 | ||
| 2025-12-07T23:44 | 5348 | 498 | 244 | 39 | ||
| 2025-12-07T23:44 | 5561 | 484 | 245 | 43 | ||
| 2025-12-07T23:44 | 5589 | 482 | -35.2 | -38.1 | ||
| 2025-12-07T23:45 | 5764 | 470 | -36.8 | -39.5 | ||
| 2025-12-07T23:45 | 5860 | 463 | -37.7 | -41.6 | ||
| 2025-12-07T23:45 | 5977 | 455 | 245 | 46 | ||
| 2025-12-07T23:45 | 6032 | 452 | -39.2 | -43.2 | ||
| 2025-12-07T23:46 | 6134 | 445 | -40.0 | -44.2 | ||
| 2025-12-07T23:46 | 6389 | 428 | 248 | 48 | ||
| 2025-12-07T23:46 | 6477 | 423 | -42.5 | |||
| 2025-12-07T23:47 | 6587 | 416 | -42.3 | |||
| 2025-12-07T23:47 | 6648 | 412 | -42.0 | |||
| 2025-12-07T23:47 | 6796 | 404 | 256 | 51 | ||
| 2025-12-07T23:48 | 6936 | 395 | -42.6 | |||
| 2025-12-07T23:48 | 7192 | 381 | 256 | 54 | ||
| 2025-12-07T23:49 | 7383 | 370 | -44.6 | |||
| 2025-12-07T23:49 | 7600 | 358 | -45.5 | 256 | 57 | |
| 2025-12-07T23:50 | 8024 | 336 | 259 | 57 | ||
| 2025-12-07T23:50 | 8123 | 331 | -46.7 | |||
| 2025-12-07T23:51 | 8248 | 325 | -47.3 | |||
| 2025-12-07T23:51 | 8345 | 320 | -47.0 | |||
| 2025-12-07T23:51 | 8446 | 315 | 259 | 58 | ||
| 2025-12-07T23:51 | 8539 | 311 | -46.1 | |||
| 2025-12-07T23:52 | 8712 | 303 | -46.5 | |||
| 2025-12-07T23:52 | 8832 | 297 | 262 | 57 | ||
| 2025-12-07T23:52 | 8881 | 295 | -44.9 | |||
| 2025-12-07T23:53 | 9161 | 283 | 265 | 53 | ||
| 2025-12-07T23:53 | 9273 | 279 | -44.0 | |||
| 2025-12-07T23:54 | 9462 | 271 | -43.8 | |||
| 2025-12-07T23:54 | 9548 | 267 | 264 | 51 | ||
| 2025-12-07T23:54 | 9580 | 266 | -42.7 | |||
| 2025-12-07T23:55 | 9787 | 258 | -43.1 | |||
| 2025-12-07T23:55 | 9828 | 257 | 268 | 48 | ||
| 2025-12-07T23:55 | 10029 | 249 | -43.4 | |||
| 2025-12-07T23:55 | 10163 | 244 | -41.9 | |||
| 2025-12-07T23:56 | 10225 | 242 | 265 | 43 | ||
| 2025-12-07T23:56 | 10475 | 233 | 262 | 37 | ||
| 2025-12-07T23:56 | 10482 | 233 | -42.6 | |||
| 2025-12-07T23:57 | 10800 | 222 | 253 | 40 | ||
| 2025-12-07T23:58 | 10980 | 216 | 253 | 41 | ||
| 2025-12-07T23:59 | 11316 | 206 | -45.6 | |||
| 2025-12-07T23:59 | 11327 | 205 | 252 | 41 | ||
| 2025-12-07T23:59 | 11610 | 197 | -45.1 | |||
| 2025-12-08T00:00 | 11667 | 195 | 249 | 42 | ||
| 2025-12-08T00:00 | 11853 | 190 | -45.1 | |||
| 2025-12-08T00:01 | 12030 | 185 | 251 | 42 | ||
| 2025-12-08T00:02 | 12398 | 175 | 255 | 43 | ||
| 2025-12-08T00:02 | 12615 | 169 | -46.8 | |||
| 2025-12-08T00:03 | 12767 | 165 | 250 | 39 | ||
| 2025-12-08T00:04 | 13159 | 156 | 250 | 41 | ||
| 2025-12-08T00:04 | 13393 | 150 | -50.6 | |||
| 2025-12-08T00:04 | 13504 | 148 | 244 | 44 | ||
| 2025-12-08T00:05 | 13828 | 141 | 250 | 48 | ||
| 2025-12-08T00:06 | 14194 | 133 | -53.7 | |||
| 2025-12-08T00:06 | 14217 | 132 | 239 | 48 | ||
| 2025-12-08T00:07 | 14641 | 124 | 235 | 55 | ||
| 2025-12-08T00:07 | 14718 | 122 | -57.0 | |||
| 2025-12-08T00:08 | 14816 | 120 | 243 | 57 | ||
| 2025-12-08T00:08 | 15092 | 115 | -57.6 | |||
| 2025-12-08T00:09 | 15170 | 114 | 251 | 54 | ||
| 2025-12-08T00:09 | 15344 | 111 | -57.6 | |||
| 2025-12-08T00:09 | 15477 | 108 | -56.1 | |||
| 2025-12-08T00:10 | 15512 | 108 | 252 | 55 | ||
| 2025-12-08T00:10 | 15751 | 104 | -57.4 | |||
| 2025-12-08T00:11 | 15870 | 102 | 260 | 55 | ||
| 2025-12-08T00:11 | 15914 | 101 | -55.6 | |||
| 2025-12-08T00:11 | 15999 | 100 | -54.0 | |||
| 2025-12-08T00:11 | 16113 | 98 | 259 | 53 | ||
| 2025-12-08T00:11 | 16162 | 97 | -52.1 | |||
| 2025-12-08T00:11 | 16245 | 96 | 258 | 49 | ||
| 2025-12-08T00:12 | 16345 | 95 | -45.6 |
Only the first 2000 rows were shown. To view the complete dataset, download it as tab-delimited text. You can still view the full matrix in your browser, but be aware that this may crash the browser due to the huge size.
